<?xml version="1.0" encoding="UTF-8" standalone="yes"?>
<gpx xmlns:gpxtpx1="http://www.garmin.com/xmlschemas/TrackPointExtension/v1" xmlns="http://www.topografix.com/GPX/1/1" xmlns:trp="http://www.garmin.com/xmlschemas/TripExtensions/v1" xmlns:gpxx="http://www.garmin.com/xmlschemas/GpxExtensions/v3" xmlns:gpxtpx="http://www.garmin.com/xmlschemas/TrackPointExtension/v2" version="1.1" creator="RouteConverter 2.30">
 <metadata>
 <name>2021-10-31 10:44</name>
 <link href="https://www.oruxmaps.com">
 <text>OruxMaps</text>
 </link>
 <time>2021-11-01T12:13:16.580Z</time>
 <bounds minlat="48.9554177" minlon="9.5464637" maxlat="48.9785197" maxlon="9.5798578"/>
 </metadata>
 <trk>
 <name>2021-10-31 10:44</name>
 <desc>&lt;p&gt;Startzeit: 10:44 31.10.2021&lt;br/&gt;Zielzeit: 17:11 31.10.2021&lt;br/&gt;Strecke: 10,
9 km (06:26)&lt;br/&gt;Bewegungszeit: 02:06&lt;br/&gt;Ø-Geschwindigkeit: 1,
68 km/h&lt;br/&gt;Netto-Geschwindigkeit: 5,
13 km/h&lt;br/&gt;Max. Geschwindigkeit: 5,
58 km/h&lt;br/&gt;Minimale Höhe: 293 m&lt;br/&gt;Maximale Höhe: 537 m&lt;br/&gt;Steig-Geschw.: 124,
1 m/h&lt;br/&gt;Sink-Geschw.: -129,
1 m/h&lt;br/&gt;Aufstieg: 402 m&lt;br/&gt;Abstieg: -402 m&lt;br/&gt;Steigzeit: 03:14&lt;br/&gt;Sinkzeit: 03:06&lt;br/&gt;&lt;/p&gt;&lt;hr align="center" width="480" style="height: 2px; width: 517px"/&gt;</desc>
 <type>Unbestimmt</type>
 <extensions>
 <om:oruxmapsextensions xmlns:om="http://www.oruxmaps.com/oruxmapsextensions/1/0" xmlns:gpxtpx="http://www.garmin.com/xmlschemas/TrackPointExtension/v1" xmlns:xsi="http://www.w3.org/2001/XMLSchema-instance">
 <om:ext subtype="0" type="TYPE">0</om:ext>
 <om:ext type="DIFFICULTY">0</om:ext>
</om:oruxmapsextensions>
 </extensions>
 <trkseg>
 <trkpt lat="48.9773614" lon="9.5793102">
 <ele>296.2</ele>
 <time>2021-10-31T09:44:22.000Z</time>
 <name>0000408</name>
 </trkpt>
 <trkpt lat="48.9775187" lon="9.5791763">
 <ele>296.0</ele>
 <time>2021-10-31T09:46:38.000Z</time>
 <name>Position 2</name>
 </trkpt>
 <trkpt lat="48.9776506" lon="9.5789845">
 <ele>295.8</ele>
 <time>2021-10-31T09:46:52.000Z</time>
 <name>Position 3</name>
 </trkpt>
 <trkpt lat="48.9777898" lon="9.5788037">
 <ele>295.5</ele>
 <time>2021-10-31T09:47:08.000Z</time>
 <name>Position 4</name>
 </trkpt>
 <trkpt lat="48.9779554" lon="9.5786612">
 <ele>294.9</ele>
 <time>2021-10-31T09:48:19.000Z</time>
 <name>Position 5</name>
 </trkpt>
 <trkpt lat="48.9781365" lon="9.5786247">
 <ele>294.2</ele>
 <time>2021-10-31T09:49:49.000Z</time>
 <name>Position 6</name>
 </trkpt>
 <trkpt lat="48.9783002" lon="9.5784779">
 <ele>293.4</ele>
 <time>2021-10-31T09:53:31.000Z</time>
 <name>Position 7</name>
 </trkpt>
 <trkpt lat="48.9782903" lon="9.5782009">
 <ele>293.7</ele>
 <time>2021-10-31T09:53:59.000Z</time>
 <name>Position 8</name>
 </trkpt>
 <trkpt lat="48.9782397" lon="9.5779255">
 <ele>294.9</ele>
 <time>2021-10-31T09:55:07.000Z</time>
 <name>Position 9</name>
 </trkpt>
 <trkpt lat="48.9781818" lon="9.5776435">
 <ele>296.3</ele>
 <time>2021-10-31T09:55:21.000Z</time>
 <name>Position 10</name>
 </trkpt>
 <trkpt lat="48.9781181" lon="9.577376">
 <ele>298.1</ele>
 <time>2021-10-31T09:55:39.000Z</time>
 <name>Position 11</name>
 </trkpt>
 <trkpt lat="48.9780799" lon="9.577093">
 <ele>300.3</ele>
 <time>2021-10-31T09:55:57.000Z</time>
 <name>Position 12</name>
 </trkpt>
 <trkpt lat="48.9780269" lon="9.5768306">
 <ele>302.5</ele>
 <time>2021-10-31T09:56:11.000Z</time>
 <name>Position 13</name>
 </trkpt>
 <trkpt lat="48.9779828" lon="9.5765647">
 <ele>305.2</ele>
 <time>2021-10-31T09:56:27.000Z</time>
 <name>Position 14</name>
 </trkpt>
 <trkpt lat="48.9780698" lon="9.5762925">
 <ele>308.0</ele>
 <time>2021-10-31T09:56:57.000Z</time>
 <name>Position 15</name>
 </trkpt>
 <trkpt lat="48.9782559" lon="9.5762029">
 <ele>307.3</ele>
 <time>2021-10-31T09:57:17.000Z</time>
 <name>Position 16</name>
 </trkpt>
 <trkpt lat="48.9784397" lon="9.5760893">
 <ele>305.4</ele>
 <time>2021-10-31T09:57:33.000Z</time>
 <name>Position 17</name>
 </trkpt>
 <trkpt lat="48.9785197" lon="9.5758219">
 <ele>305.5</ele>
 <time>2021-10-31T09:57:53.000Z</time>
 <name>Position 18</name>
 </trkpt>
 <trkpt lat="48.9784959" lon="9.5755262">
 <ele>306.4</ele>
 <time>2021-10-31T09:58:09.000Z</time>
 <name>Position 19</name>
 </trkpt>
 <trkpt lat="48.9784224" lon="9.5752494">
 <ele>308.5</ele>
 <time>2021-10-31T09:58:25.000Z</time>
 <name>Position 20</name>
 </trkpt>
 <trkpt lat="48.9783204" lon="9.5750037">
 <ele>311.1</ele>
 <time>2021-10-31T09:58:41.000Z</time>
 <name>Position 21</name>
 </trkpt>
 <trkpt lat="48.9781799" lon="9.5748017">
 <ele>315.1</ele>
 <time>2021-10-31T09:59:01.000Z</time>
 <name>Position 22</name>
 </trkpt>
 <trkpt lat="48.978013" lon="9.5746514">
 <ele>319.8</ele>
 <time>2021-10-31T09:59:19.000Z</time>
 <name>Position 23</name>
 </trkpt>
 <trkpt lat="48.9778674" lon="9.5744643">
 <ele>324.2</ele>
 <time>2021-10-31T09:59:39.000Z</time>
 <name>Position 24</name>
 </trkpt>
 <trkpt lat="48.9779173" lon="9.5741969">
 <ele>323.6</ele>
 <time>2021-10-31T09:59:57.000Z</time>
 <name>Position 25</name>
 </trkpt>
 <trkpt lat="48.9780504" lon="9.5739841">
 <ele>321.5</ele>
 <time>2021-10-31T10:00:15.000Z</time>
 <name>Position 26</name>
 </trkpt>
 <trkpt lat="48.9781507" lon="9.5737275">
 <ele>321.1</ele>
 <time>2021-10-31T10:00:49.000Z</time>
 <name>Position 27</name>
 </trkpt>
 <trkpt lat="48.9782018" lon="9.5734449">
 <ele>322.5</ele>
 <time>2021-10-31T10:01:07.000Z</time>
 <name>Position 28</name>
 </trkpt>
 <trkpt lat="48.9781963" lon="9.573161">
 <ele>323.6</ele>
 <time>2021-10-31T10:01:25.000Z</time>
 <name>Position 29</name>
 </trkpt>
 <trkpt lat="48.978115" lon="9.5728921">
 <ele>325.0</ele>
 <time>2021-10-31T10:01:43.000Z</time>
 <name>Position 30</name>
 </trkpt>
 <trkpt lat="48.9779512" lon="9.5727212">
 <ele>328.2</ele>
 <time>2021-10-31T10:02:03.000Z</time>
 <name>Position 31</name>
 </trkpt>
 <trkpt lat="48.977776" lon="9.5726503">
 <ele>331.9</ele>
 <time>2021-10-31T10:02:21.000Z</time>
 <name>Position 32</name>
 </trkpt>
 <trkpt lat="48.9776245" lon="9.5725025">
 <ele>335.2</ele>
 <time>2021-10-31T10:02:43.000Z</time>
 <name>Position 33</name>
 </trkpt>
 <trkpt lat="48.977454" lon="9.5726568">
 <ele>339.4</ele>
 <time>2021-10-31T10:03:27.000Z</time>
 <name>Position 34</name>
 </trkpt>
 <trkpt lat="48.9772895" lon="9.5727981">
 <ele>345.7</ele>
 <time>2021-10-31T10:03:47.000Z</time>
 <name>Position 35</name>
 </trkpt>
 <trkpt lat="48.9771214" lon="9.5726956">
 <ele>352.0</ele>
 <time>2021-10-31T10:04:13.000Z</time>
 <name>Position 36</name>
 </trkpt>
 <trkpt lat="48.977004" lon="9.5724855">
 <ele>356.7</ele>
 <time>2021-10-31T10:04:47.000Z</time>
 <name>Position 37</name>
 </trkpt>
 <trkpt lat="48.9768798" lon="9.5722778">
 <ele>361.9</ele>
 <time>2021-10-31T10:05:27.000Z</time>
 <name>Position 38</name>
 </trkpt>
 <trkpt lat="48.9767598" lon="9.572071">
 <ele>367.0</ele>
 <time>2021-10-31T10:06:29.000Z</time>
 <name>Position 39</name>
 </trkpt>
 <trkpt lat="48.9766638" lon="9.5718351">
 <ele>371.7</ele>
 <time>2021-10-31T10:07:17.000Z</time>
 <name>Position 40</name>
 </trkpt>
 <trkpt lat="48.9765549" lon="9.5716039">
 <ele>374.4</ele>
 <time>2021-10-31T10:11:34.000Z</time>
 <name>Position 41</name>
 </trkpt>
 <trkpt lat="48.9764469" lon="9.5713518">
 <ele>376.1</ele>
 <time>2021-10-31T10:11:58.000Z</time>
 <name>Position 42</name>
 </trkpt>
 <trkpt lat="48.9763353" lon="9.5711235">
 <ele>378.7</ele>
 <time>2021-10-31T10:12:18.000Z</time>
 <name>Position 43</name>
 </trkpt>
 <trkpt lat="48.9762082" lon="9.5708995">
 <ele>382.6</ele>
 <time>2021-10-31T10:12:40.000Z</time>
 <name>Position 44</name>
 </trkpt>
 <trkpt lat="48.9761197" lon="9.5706357">
 <ele>385.6</ele>
 <time>2021-10-31T10:13:04.000Z</time>
 <name>Position 45</name>
 </trkpt>
 <trkpt lat="48.9760066" lon="9.5704">
 <ele>389.7</ele>
 <time>2021-10-31T10:13:27.000Z</time>
 <name>Position 46</name>
 </trkpt>
 <trkpt lat="48.9758866" lon="9.5701783">
 <ele>394.7</ele>
 <time>2021-10-31T10:13:51.000Z</time>
 <name>Position 47</name>
 </trkpt>
 <trkpt lat="48.9757897" lon="9.5699467">
 <ele>398.2</ele>
 <time>2021-10-31T10:14:19.000Z</time>
 <name>Position 48</name>
 </trkpt>
 <trkpt lat="48.9757116" lon="9.5696478">
 <ele>403.2</ele>
 <time>2021-10-31T10:14:49.000Z</time>
 <name>Position 49</name>
 </trkpt>
 <trkpt lat="48.9756376" lon="9.5693922">
 <ele>408.6</ele>
 <time>2021-10-31T10:15:17.000Z</time>
 <name>Position 50</name>
 </trkpt>
 <trkpt lat="48.9755839" lon="9.5691133">
 <ele>414.0</ele>
 <time>2021-10-31T10:15:59.000Z</time>
 <name>Position 51</name>
 </trkpt>
 <trkpt lat="48.975556" lon="9.5688085">
 <ele>417.7</ele>
 <time>2021-10-31T10:16:25.000Z</time>
 <name>Position 52</name>
 </trkpt>
 <trkpt lat="48.9755249" lon="9.5685122">
 <ele>421.3</ele>
 <time>2021-10-31T10:16:51.000Z</time>
 <name>Position 53</name>
 </trkpt>
 <trkpt lat="48.9754226" lon="9.5682608">
 <ele>426.5</ele>
 <time>2021-10-31T10:17:31.000Z</time>
 <name>Position 54</name>
 </trkpt>
 <trkpt lat="48.9753145" lon="9.5680363">
 <ele>430.8</ele>
 <time>2021-10-31T10:17:55.000Z</time>
 <name>Position 55</name>
 </trkpt>
 <trkpt lat="48.9751669" lon="9.5678126">
 <ele>436.3</ele>
 <time>2021-10-31T10:18:44.000Z</time>
 <name>Position 56</name>
 </trkpt>
 <trkpt lat="48.9750115" lon="9.5676333">
 <ele>442.6</ele>
 <time>2021-10-31T10:19:04.000Z</time>
 <name>Position 57</name>
 </trkpt>
 <trkpt lat="48.9748548" lon="9.5674736">
 <ele>444.2</ele>
 <time>2021-10-31T10:19:24.000Z</time>
 <name>Position 58</name>
 </trkpt>
 <trkpt lat="48.9747314" lon="9.5672355">
 <ele>444.3</ele>
 <time>2021-10-31T10:19:44.000Z</time>
 <name>Position 59</name>
 </trkpt>
 <trkpt lat="48.9746126" lon="9.5670257">
 <ele>445.7</ele>
 <time>2021-10-31T10:20:32.000Z</time>
 <name>Position 60</name>
 </trkpt>
 <trkpt lat="48.9744669" lon="9.566851">
 <ele>448.4</ele>
 <time>2021-10-31T10:20:52.000Z</time>
 <name>Position 61</name>
 </trkpt>
 <trkpt lat="48.9743335" lon="9.5666367">
 <ele>452.1</ele>
 <time>2021-10-31T10:21:30.000Z</time>
 <name>Position 62</name>
 </trkpt>
 <trkpt lat="48.9742156" lon="9.5664184">
 <ele>454.1</ele>
 <time>2021-10-31T10:21:52.000Z</time>
 <name>Position 63</name>
 </trkpt>
 <trkpt lat="48.9740993" lon="9.5661917">
 <ele>454.8</ele>
 <time>2021-10-31T10:22:26.000Z</time>
 <name>Position 64</name>
 </trkpt>
 <trkpt lat="48.9739372" lon="9.5660382">
 <ele>455.2</ele>
 <time>2021-10-31T10:22:50.000Z</time>
 <name>Position 65</name>
 </trkpt>
 <trkpt lat="48.9737762" lon="9.5659003">
 <ele>456.8</ele>
 <time>2021-10-31T10:23:12.000Z</time>
 <name>Position 66</name>
 </trkpt>
 <trkpt lat="48.973604" lon="9.5658027">
 <ele>458.8</ele>
 <time>2021-10-31T10:23:36.000Z</time>
 <name>Position 67</name>
 </trkpt>
 <trkpt lat="48.973483" lon="9.5655939">
 <ele>461.0</ele>
 <time>2021-10-31T10:23:56.000Z</time>
 <name>Position 68</name>
 </trkpt>
 <trkpt lat="48.9733631" lon="9.5653718">
 <ele>464.3</ele>
 <time>2021-10-31T10:26:42.000Z</time>
 <name>Position 69</name>
 </trkpt>
 <trkpt lat="48.9735433" lon="9.5653459">
 <ele>461.5</ele>
 <time>2021-10-31T10:30:22.000Z</time>
 <name>Position 70</name>
 </trkpt>
 <trkpt lat="48.973641" lon="9.5651096">
 <ele>460.4</ele>
 <time>2021-10-31T10:32:38.000Z</time>
 <name>Position 71</name>
 </trkpt>
 <trkpt lat="48.9736725" lon="9.5648357">
 <ele>458.6</ele>
 <time>2021-10-31T10:32:56.000Z</time>
 <name>Position 72</name>
 </trkpt>
 <trkpt lat="48.9736979" lon="9.564538">
 <ele>455.7</ele>
 <time>2021-10-31T10:33:20.000Z</time>
 <name>Position 73</name>
 </trkpt>
 <trkpt lat="48.9736799" lon="9.5642471">
 <ele>453.8</ele>
 <time>2021-10-31T10:33:44.000Z</time>
 <name>Position 74</name>
 </trkpt>
 <trkpt lat="48.9736614" lon="9.5639653">
 <ele>452.8</ele>
 <time>2021-10-31T10:35:18.000Z</time>
 <name>Position 75</name>
 </trkpt>
 <trkpt lat="48.9736514" lon="9.5636854">
 <ele>452.1</ele>
 <time>2021-10-31T10:36:03.000Z</time>
 <name>Position 76</name>
 </trkpt>
 <trkpt lat="48.9736541" lon="9.5633984">
 <ele>451.3</ele>
 <time>2021-10-31T10:37:13.000Z</time>
 <name>Position 77</name>
 </trkpt>
 <trkpt lat="48.9735909" lon="9.563123">
 <ele>451.9</ele>
 <time>2021-10-31T10:37:38.000Z</time>
 <name>Position 78</name>
 </trkpt>
 <trkpt lat="48.9734971" lon="9.5628735">
 <ele>453.8</ele>
 <time>2021-10-31T10:38:00.000Z</time>
 <name>Position 79</name>
 </trkpt>
 <trkpt lat="48.9734189" lon="9.5626002">
 <ele>455.5</ele>
 <time>2021-10-31T10:38:30.000Z</time>
 <name>Position 80</name>
 </trkpt>
 <trkpt lat="48.9733399" lon="9.5623248">
 <ele>456.1</ele>
 <time>2021-10-31T10:39:04.000Z</time>
 <name>Position 81</name>
 </trkpt>
 <trkpt lat="48.9732476" lon="9.5620601">
 <ele>454.9</ele>
 <time>2021-10-31T10:39:28.000Z</time>
 <name>Position 82</name>
 </trkpt>
 <trkpt lat="48.9731989" lon="9.5617939">
 <ele>453.1</ele>
 <time>2021-10-31T10:39:56.000Z</time>
 <name>Position 83</name>
 </trkpt>
 <trkpt lat="48.9731194" lon="9.561533">
 <ele>451.2</ele>
 <time>2021-10-31T10:40:16.000Z</time>
 <name>Position 84</name>
 </trkpt>
 <trkpt lat="48.9730193" lon="9.5612693">
 <ele>448.8</ele>
 <time>2021-10-31T10:40:39.000Z</time>
 <name>Position 85</name>
 </trkpt>
 <trkpt lat="48.9728914" lon="9.5609971">
 <ele>446.9</ele>
 <time>2021-10-31T10:40:59.000Z</time>
 <name>Position 86</name>
 </trkpt>
 <trkpt lat="48.9727685" lon="9.560797">
 <ele>445.8</ele>
 <time>2021-10-31T10:41:31.000Z</time>
 <name>Position 87</name>
 </trkpt>
 <trkpt lat="48.972615" lon="9.5606213">
 <ele>444.7</ele>
 <time>2021-10-31T10:42:01.000Z</time>
 <name>Position 88</name>
 </trkpt>
 <trkpt lat="48.972436" lon="9.5605014">
 <ele>444.0</ele>
 <time>2021-10-31T10:42:23.000Z</time>
 <name>Position 89</name>
 </trkpt>
 <trkpt lat="48.972257" lon="9.5603805">
 <ele>441.2</ele>
 <time>2021-10-31T10:42:41.000Z</time>
 <name>Position 90</name>
 </trkpt>
 <trkpt lat="48.9720572" lon="9.560322">
 <ele>439.6</ele>
 <time>2021-10-31T10:43:09.000Z</time>
 <name>Position 91</name>
 </trkpt>
 <trkpt lat="48.9718824" lon="9.5602154">
 <ele>436.5</ele>
 <time>2021-10-31T10:43:33.000Z</time>
 <name>Position 92</name>
 </trkpt>
 <trkpt lat="48.9720152" lon="9.5600255">
 <ele>431.7</ele>
 <time>2021-10-31T10:44:27.000Z</time>
 <name>Position 93</name>
 </trkpt>
 <trkpt lat="48.9721592" lon="9.5598504">
 <ele>427.0</ele>
 <time>2021-10-31T10:45:11.000Z</time>
 <name>Position 94</name>
 </trkpt>
 <trkpt lat="48.972305" lon="9.5596828">
 <ele>422.9</ele>
 <time>2021-10-31T10:47:39.000Z</time>
 <name>Position 95</name>
 </trkpt>
 <trkpt lat="48.972481" lon="9.5595973">
 <ele>421.4</ele>
 <time>2021-10-31T10:48:22.000Z</time>
 <name>Position 96</name>
 </trkpt>
 <trkpt lat="48.9726762" lon="9.5596734">
 <ele>421.6</ele>
 <time>2021-10-31T10:48:58.000Z</time>
 <name>Position 97</name>
 </trkpt>
 <trkpt lat="48.9728618" lon="9.5597048">
 <ele>420.5</ele>
 <time>2021-10-31T10:49:44.000Z</time>
 <name>Position 98</name>
 </trkpt>
 <trkpt lat="48.9730378" lon="9.5596104">
 <ele>416.4</ele>
 <time>2021-10-31T10:50:10.000Z</time>
 <name>Position 99</name>
 </trkpt>
 <trkpt lat="48.973137" lon="9.5593433">
 <ele>409.1</ele>
 <time>2021-10-31T10:51:42.000Z</time>
 <name>Position 100</name>
 </trkpt>
 <trkpt lat="48.9733152" lon="9.5592666">
 <ele>405.6</ele>
 <time>2021-10-31T10:52:56.000Z</time>
 <name>Position 101</name>
 </trkpt>
 <trkpt lat="48.9734644" lon="9.559034">
 <ele>398.6</ele>
 <time>2021-10-31T10:53:56.000Z</time>
 <name>Position 102</name>
 </trkpt>
 <trkpt lat="48.9732824" lon="9.5589638">
 <ele>398.7</ele>
 <time>2021-10-31T10:54:16.000Z</time>
 <name>Position 103</name>
 </trkpt>
 <trkpt lat="48.9731027" lon="9.5588508">
 <ele>397.5</ele>
 <time>2021-10-31T10:54:36.000Z</time>
 <name>Position 104</name>
 </trkpt>
 <trkpt lat="48.9729125" lon="9.5587488">
 <ele>396.5</ele>
 <time>2021-10-31T10:54:58.000Z</time>
 <name>Position 105</name>
 </trkpt>
 <trkpt lat="48.9727424" lon="9.5586452">
 <ele>395.4</ele>
 <time>2021-10-31T10:55:22.000Z</time>
 <name>Position 106</name>
 </trkpt>
 <trkpt lat="48.9725659" lon="9.5585902">
 <ele>395.4</ele>
 <time>2021-10-31T10:55:40.000Z</time>
 <name>Position 107</name>
 </trkpt>
 <trkpt lat="48.9723611" lon="9.5585174">
 <ele>393.7</ele>
 <time>2021-10-31T10:55:58.000Z</time>
 <name>Position 108</name>
 </trkpt>
 <trkpt lat="48.9721704" lon="9.5585019">
 <ele>392.4</ele>
 <time>2021-10-31T10:56:14.000Z</time>
 <name>Position 109</name>
 </trkpt>
 <trkpt lat="48.9719857" lon="9.5584967">
 <ele>391.6</ele>
 <time>2021-10-31T10:56:30.000Z</time>
 <name>Position 110</name>
 </trkpt>
 <trkpt lat="48.9717996" lon="9.558491">
 <ele>390.7</ele>
 <time>2021-10-31T10:56:48.000Z</time>
 <name>Position 111</name>
 </trkpt>
 <trkpt lat="48.9716187" lon="9.5585433">
 <ele>391.8</ele>
 <time>2021-10-31T10:57:06.000Z</time>
 <name>Position 112</name>
 </trkpt>
 <trkpt lat="48.9714401" lon="9.5586174">
 <ele>397.0</ele>
 <time>2021-10-31T10:57:30.000Z</time>
 <name>Position 113</name>
 </trkpt>
 <trkpt lat="48.9712987" lon="9.5584376">
 <ele>396.6</ele>
 <time>2021-10-31T10:59:34.000Z</time>
 <name>Position 114</name>
 </trkpt>
 <trkpt lat="48.9711719" lon="9.5582404">
 <ele>396.4</ele>
 <time>2021-10-31T10:59:54.000Z</time>
 <name>Position 115</name>
 </trkpt>
 <trkpt lat="48.9710778" lon="9.5579963">
 <ele>396.6</ele>
 <time>2021-10-31T11:00:14.000Z</time>
 <name>Position 116</name>
 </trkpt>
 <trkpt lat="48.9710303" lon="9.5577168">
 <ele>395.6</ele>
 <time>2021-10-31T11:00:32.000Z</time>
 <name>Position 117</name>
 </trkpt>
 <trkpt lat="48.9709791" lon="9.5574472">
 <ele>395.0</ele>
 <time>2021-10-31T11:00:48.000Z</time>
 <name>Position 118</name>
 </trkpt>
 <trkpt lat="48.9709304" lon="9.557178">
 <ele>395.7</ele>
 <time>2021-10-31T11:01:16.000Z</time>
 <name>Position 119</name>
 </trkpt>
 <trkpt lat="48.9709392" lon="9.5568727">
 <ele>395.5</ele>
 <time>2021-10-31T11:01:34.000Z</time>
 <name>Position 120</name>
 </trkpt>
 <trkpt lat="48.970928" lon="9.556593">
 <ele>395.3</ele>
 <time>2021-10-31T11:02:27.000Z</time>
 <name>Position 121</name>
 </trkpt>
 <trkpt lat="48.9708857" lon="9.5563185">
 <ele>395.0</ele>
 <time>2021-10-31T11:02:43.000Z</time>
 <name>Position 122</name>
 </trkpt>
 <trkpt lat="48.9708496" lon="9.5560475">
 <ele>394.6</ele>
 <time>2021-10-31T11:03:15.000Z</time>
 <name>Position 123</name>
 </trkpt>
 <trkpt lat="48.970709" lon="9.5558382">
 <ele>395.4</ele>
 <time>2021-10-31T11:03:49.000Z</time>
 <name>Position 124</name>
 </trkpt>
 <trkpt lat="48.9705442" lon="9.5556672">
 <ele>395.1</ele>
 <time>2021-10-31T11:04:09.000Z</time>
 <name>Position 125</name>
 </trkpt>
 <trkpt lat="48.9703888" lon="9.5555155">
 <ele>395.2</ele>
 <time>2021-10-31T11:04:33.000Z</time>
 <name>Position 126</name>
 </trkpt>
 <trkpt lat="48.9702344" lon="9.555371">
 <ele>395.7</ele>
 <time>2021-10-31T11:05:33.000Z</time>
 <name>Position 127</name>
 </trkpt>
 <trkpt lat="48.9700803" lon="9.5552073">
 <ele>396.5</ele>
 <time>2021-10-31T11:05:51.000Z</time>
 <name>Position 128</name>
 </trkpt>
 <trkpt lat="48.9699099" lon="9.5550621">
 <ele>397.0</ele>
 <time>2021-10-31T11:06:13.000Z</time>
 <name>Position 129</name>
 </trkpt>
 <trkpt lat="48.9700754" lon="9.5549187">
 <ele>393.6</ele>
 <time>2021-10-31T11:06:41.000Z</time>
 <name>Position 130</name>
 </trkpt>
 <trkpt lat="48.9702651" lon="9.5548661">
 <ele>389.5</ele>
 <time>2021-10-31T11:06:59.000Z</time>
 <name>Position 131</name>
 </trkpt>
 <trkpt lat="48.9704587" lon="9.5547601">
 <ele>384.0</ele>
 <time>2021-10-31T11:07:23.000Z</time>
 <name>Position 132</name>
 </trkpt>
 <trkpt lat="48.9706474" lon="9.5547813">
 <ele>381.0</ele>
 <time>2021-10-31T11:07:41.000Z</time>
 <name>Position 133</name>
 </trkpt>
 <trkpt lat="48.9708308" lon="9.5548809">
 <ele>379.6</ele>
 <time>2021-10-31T11:08:07.000Z</time>
 <name>Position 134</name>
 </trkpt>
 <trkpt lat="48.9710132" lon="9.5549421">
 <ele>376.3</ele>
 <time>2021-10-31T11:08:23.000Z</time>
 <name>Position 135</name>
 </trkpt>
 <trkpt lat="48.9712252" lon="9.5550125">
 <ele>372.2</ele>
 <time>2021-10-31T11:08:43.000Z</time>
 <name>Position 136</name>
 </trkpt>
 <trkpt lat="48.9714159" lon="9.5550736">
 <ele>367.9</ele>
 <time>2021-10-31T11:09:17.000Z</time>
 <name>Position 137</name>
 </trkpt>
 <trkpt lat="48.9715957" lon="9.5551755">
 <ele>364.6</ele>
 <time>2021-10-31T11:09:35.000Z</time>
 <name>Position 138</name>
 </trkpt>
 <trkpt lat="48.971776" lon="9.5552285">
 <ele>361.7</ele>
 <time>2021-10-31T11:10:05.000Z</time>
 <name>Position 139</name>
 </trkpt>
 <trkpt lat="48.9719844" lon="9.5552651">
 <ele>358.9</ele>
 <time>2021-10-31T11:10:27.000Z</time>
 <name>Position 140</name>
 </trkpt>
 <trkpt lat="48.9721796" lon="9.5553786">
 <ele>356.8</ele>
 <time>2021-10-31T11:10:49.000Z</time>
 <name>Position 141</name>
 </trkpt>
 <trkpt lat="48.9722247" lon="9.5551045">
 <ele>353.6</ele>
 <time>2021-10-31T11:11:57.000Z</time>
 <name>Position 142</name>
 </trkpt>
 <trkpt lat="48.9721064" lon="9.5548494">
 <ele>353.7</ele>
 <time>2021-10-31T11:12:41.000Z</time>
 <name>Position 143</name>
 </trkpt>
 <trkpt lat="48.9719583" lon="9.5546857">
 <ele>354.6</ele>
 <time>2021-10-31T11:13:03.000Z</time>
 <name>Position 144</name>
 </trkpt>
 <trkpt lat="48.9718986" lon="9.5544225">
 <ele>353.6</ele>
 <time>2021-10-31T11:13:43.000Z</time>
 <name>Position 145</name>
 </trkpt>
 <trkpt lat="48.9717141" lon="9.5543806">
 <ele>353.9</ele>
 <time>2021-10-31T11:17:30.000Z</time>
 <name>Position 146</name>
 </trkpt>
 <trkpt lat="48.9719089" lon="9.5543771">
 <ele>353.3</ele>
 <time>2021-10-31T11:23:30.000Z</time>
 <name>Position 147</name>
 </trkpt>
 <trkpt lat="48.9721052" lon="9.554386">
 <ele>352.6</ele>
 <time>2021-10-31T11:24:00.000Z</time>
 <name>Position 148</name>
 </trkpt>
 <trkpt lat="48.9719266" lon="9.5544374">
 <ele>353.5</ele>
 <time>2021-10-31T11:25:30.000Z</time>
 <name>Position 149</name>
 </trkpt>
 <trkpt lat="48.9717455" lon="9.5544701">
 <ele>354.5</ele>
 <time>2021-10-31T11:26:04.000Z</time>
 <name>Position 150</name>
 </trkpt>
 <trkpt lat="48.971548" lon="9.5544721">
 <ele>357.1</ele>
 <time>2021-10-31T11:28:21.000Z</time>
 <name>Position 151</name>
 </trkpt>
 <trkpt lat="48.9714637" lon="9.5542297">
 <ele>355.8</ele>
 <time>2021-10-31T11:29:57.000Z</time>
 <name>Position 152</name>
 </trkpt>
 <trkpt lat="48.9713631" lon="9.5539926">
 <ele>356.7</ele>
 <time>2021-10-31T11:31:16.000Z</time>
 <name>Position 153</name>
 </trkpt>
 <trkpt lat="48.9712187" lon="9.5537908">
 <ele>358.1</ele>
 <time>2021-10-31T11:32:42.000Z</time>
 <name>Position 154</name>
 </trkpt>
 <trkpt lat="48.9712124" lon="9.5535085">
 <ele>357.7</ele>
 <time>2021-10-31T11:35:58.000Z</time>
 <name>Position 155</name>
 </trkpt>
 <trkpt lat="48.9710283" lon="9.5535396">
 <ele>359.4</ele>
 <time>2021-10-31T11:38:10.000Z</time>
 <name>Position 156</name>
 </trkpt>
 <trkpt lat="48.9708523" lon="9.5534756">
 <ele>360.7</ele>
 <time>2021-10-31T11:38:48.000Z</time>
 <name>Position 157</name>
 </trkpt>
 <trkpt lat="48.9710243" lon="9.553374">
 <ele>358.8</ele>
 <time>2021-10-31T11:40:05.000Z</time>
 <name>Position 158</name>
 </trkpt>
 <trkpt lat="48.9709214" lon="9.5531452">
 <ele>362.3</ele>
 <time>2021-10-31T11:41:03.000Z</time>
 <name>Position 159</name>
 </trkpt>
 <trkpt lat="48.9707531" lon="9.5532454">
 <ele>362.0</ele>
 <time>2021-10-31T11:42:55.000Z</time>
 <name>Position 160</name>
 </trkpt>
 <trkpt lat="48.9706736" lon="9.5529907">
 <ele>366.4</ele>
 <time>2021-10-31T11:43:41.000Z</time>
 <name>Position 161</name>
 </trkpt>
 <trkpt lat="48.9705107" lon="9.5528174">
 <ele>369.9</ele>
 <time>2021-10-31T11:44:53.000Z</time>
 <name>Position 162</name>
 </trkpt>
 <trkpt lat="48.9703703" lon="9.5526441">
 <ele>372.8</ele>
 <time>2021-10-31T11:45:45.000Z</time>
 <name>Position 163</name>
 </trkpt>
 <trkpt lat="48.970276" lon="9.5523962">
 <ele>376.6</ele>
 <time>2021-10-31T11:46:17.000Z</time>
 <name>Position 164</name>
 </trkpt>
 <trkpt lat="48.9701795" lon="9.5521438">
 <ele>381.0</ele>
 <time>2021-10-31T11:47:03.000Z</time>
 <name>Position 165</name>
 </trkpt>
 <trkpt lat="48.9700607" lon="9.5519352">
 <ele>384.7</ele>
 <time>2021-10-31T11:47:31.000Z</time>
 <name>Position 166</name>
 </trkpt>
 <trkpt lat="48.9698636" lon="9.5518084">
 <ele>386.6</ele>
 <time>2021-10-31T11:48:05.000Z</time>
 <name>Position 167</name>
 </trkpt>
 <trkpt lat="48.9696694" lon="9.5518055">
 <ele>386.3</ele>
 <time>2021-10-31T11:48:27.000Z</time>
 <name>Position 168</name>
 </trkpt>
 <trkpt lat="48.9694859" lon="9.551738">
 <ele>387.0</ele>
 <time>2021-10-31T11:49:58.000Z</time>
 <name>Position 169</name>
 </trkpt>
 <trkpt lat="48.9692948" lon="9.5516854">
 <ele>387.1</ele>
 <time>2021-10-31T11:50:26.000Z</time>
 <name>Position 170</name>
 </trkpt>
 <trkpt lat="48.9691365" lon="9.5515435">
 <ele>388.7</ele>
 <time>2021-10-31T11:50:50.000Z</time>
 <name>Position 171</name>
 </trkpt>
 <trkpt lat="48.9689877" lon="9.5513673">
 <ele>390.0</ele>
 <time>2021-10-31T11:51:14.000Z</time>
 <name>Position 172</name>
 </trkpt>
 <trkpt lat="48.968819" lon="9.5512156">
 <ele>390.5</ele>
 <time>2021-10-31T11:52:54.000Z</time>
 <name>Position 173</name>
 </trkpt>
 <trkpt lat="48.9686777" lon="9.5510443">
 <ele>391.5</ele>
 <time>2021-10-31T11:53:14.000Z</time>
 <name>Position 174</name>
 </trkpt>
 <trkpt lat="48.9685318" lon="9.5508689">
 <ele>392.3</ele>
 <time>2021-10-31T11:54:07.000Z</time>
 <name>Position 175</name>
 </trkpt>
 <trkpt lat="48.9683867" lon="9.5506985">
 <ele>393.9</ele>
 <time>2021-10-31T11:55:21.000Z</time>
 <name>Position 176</name>
 </trkpt>
 <trkpt lat="48.9682605" lon="9.5504841">
 <ele>396.9</ele>
 <time>2021-10-31T11:55:41.000Z</time>
 <name>Position 177</name>
 </trkpt>
 <trkpt lat="48.968196" lon="9.5502007">
 <ele>401.5</ele>
 <time>2021-10-31T11:56:15.000Z</time>
 <name>Position 178</name>
 </trkpt>
 <trkpt lat="48.9681077" lon="9.5499397">
 <ele>404.3</ele>
 <time>2021-10-31T11:57:35.000Z</time>
 <name>Position 179</name>
 </trkpt>
 <trkpt lat="48.9681059" lon="9.5496586">
 <ele>409.6</ele>
 <time>2021-10-31T11:58:31.000Z</time>
 <name>Position 180</name>
 </trkpt>
 <trkpt lat="48.9679688" lon="9.5494767">
 <ele>408.9</ele>
 <time>2021-10-31T11:59:35.000Z</time>
 <name>Position 181</name>
 </trkpt>
 <trkpt lat="48.9678258" lon="9.5493056">
 <ele>407.6</ele>
 <time>2021-10-31T11:59:53.000Z</time>
 <name>Position 182</name>
 </trkpt>
 <trkpt lat="48.9676935" lon="9.5490897">
 <ele>407.8</ele>
 <time>2021-10-31T12:00:28.000Z</time>
 <name>Position 183</name>
 </trkpt>
 <trkpt lat="48.9675521" lon="9.5488872">
 <ele>409.1</ele>
 <time>2021-10-31T12:00:48.000Z</time>
 <name>Position 184</name>
 </trkpt>
 <trkpt lat="48.9674126" lon="9.548699">
 <ele>411.8</ele>
 <time>2021-10-31T12:01:04.000Z</time>
 <name>Position 185</name>
 </trkpt>
 <trkpt lat="48.9672606" lon="9.5485452">
 <ele>414.2</ele>
 <time>2021-10-31T12:01:18.000Z</time>
 <name>Position 186</name>
 </trkpt>
 <trkpt lat="48.9671222" lon="9.5483488">
 <ele>417.4</ele>
 <time>2021-10-31T12:02:12.000Z</time>
 <name>Position 187</name>
 </trkpt>
 <trkpt lat="48.9669663" lon="9.548191">
 <ele>418.0</ele>
 <time>2021-10-31T12:02:28.000Z</time>
 <name>Position 188</name>
 </trkpt>
 <trkpt lat="48.9668524" lon="9.5479717">
 <ele>419.3</ele>
 <time>2021-10-31T12:02:46.000Z</time>
 <name>Position 189</name>
 </trkpt>
 <trkpt lat="48.9667819" lon="9.5477163">
 <ele>421.5</ele>
 <time>2021-10-31T12:03:16.000Z</time>
 <name>Position 190</name>
 </trkpt>
 <trkpt lat="48.9665872" lon="9.5477053">
 <ele>420.8</ele>
 <time>2021-10-31T12:03:44.000Z</time>
 <name>Position 191</name>
 </trkpt>
 <trkpt lat="48.9664354" lon="9.5478551">
 <ele>421.0</ele>
 <time>2021-10-31T12:04:10.000Z</time>
 <name>Position 192</name>
 </trkpt>
 <trkpt lat="48.966301" lon="9.5480895">
 <ele>419.0</ele>
 <time>2021-10-31T12:04:36.000Z</time>
 <name>Position 193</name>
 </trkpt>
 <trkpt lat="48.9661245" lon="9.5482016">
 <ele>418.5</ele>
 <time>2021-10-31T12:04:58.000Z</time>
 <name>Position 194</name>
 </trkpt>
 <trkpt lat="48.9659438" lon="9.5482799">
 <ele>418.5</ele>
 <time>2021-10-31T12:05:26.000Z</time>
 <name>Position 195</name>
 </trkpt>
 <trkpt lat="48.9657583" lon="9.5482767">
 <ele>420.0</ele>
 <time>2021-10-31T12:06:06.000Z</time>
 <name>Position 196</name>
 </trkpt>
 <trkpt lat="48.9655698" lon="9.5483166">
 <ele>421.2</ele>
 <time>2021-10-31T12:06:26.000Z</time>
 <name>Position 197</name>
 </trkpt>
 <trkpt lat="48.9653727" lon="9.5483741">
 <ele>422.2</ele>
 <time>2021-10-31T12:07:00.000Z</time>
 <name>Position 198</name>
 </trkpt>
 <trkpt lat="48.9651839" lon="9.5483094">
 <ele>425.6</ele>
 <time>2021-10-31T12:07:40.000Z</time>
 <name>Position 199</name>
 </trkpt>
 <trkpt lat="48.9650002" lon="9.5482891">
 <ele>428.1</ele>
 <time>2021-10-31T12:07:58.000Z</time>
 <name>Position 200</name>
 </trkpt>
 <trkpt lat="48.9648106" lon="9.5482626">
 <ele>429.2</ele>
 <time>2021-10-31T12:08:14.000Z</time>
 <name>Position 201</name>
 </trkpt>
 <trkpt lat="48.9646088" lon="9.5482973">
 <ele>428.7</ele>
 <time>2021-10-31T12:08:34.000Z</time>
 <name>Position 202</name>
 </trkpt>
 <trkpt lat="48.9644054" lon="9.5482643">
 <ele>429.7</ele>
 <time>2021-10-31T12:08:54.000Z</time>
 <name>Position 203</name>
 </trkpt>
 <trkpt lat="48.9642012" lon="9.5482548">
 <ele>430.5</ele>
 <time>2021-10-31T12:09:14.000Z</time>
 <name>Position 204</name>
 </trkpt>
 <trkpt lat="48.9640139" lon="9.5482276">
 <ele>432.5</ele>
 <time>2021-10-31T12:09:30.000Z</time>
 <name>Position 205</name>
 </trkpt>
 <trkpt lat="48.9638168" lon="9.5482401">
 <ele>433.7</ele>
 <time>2021-10-31T12:09:50.000Z</time>
 <name>Position 206</name>
 </trkpt>
 <trkpt lat="48.9636245" lon="9.5482373">
 <ele>435.4</ele>
 <time>2021-10-31T12:10:10.000Z</time>
 <name>Position 207</name>
 </trkpt>
 <trkpt lat="48.9634415" lon="9.5482515">
 <ele>436.5</ele>
 <time>2021-10-31T12:10:32.000Z</time>
 <name>Position 208</name>
 </trkpt>
 <trkpt lat="48.9632611" lon="9.5483224">
 <ele>436.3</ele>
 <time>2021-10-31T12:11:08.000Z</time>
 <name>Position 209</name>
 </trkpt>
 <trkpt lat="48.9630768" lon="9.5483828">
 <ele>437.5</ele>
 <time>2021-10-31T12:11:28.000Z</time>
 <name>Position 210</name>
 </trkpt>
 <trkpt lat="48.9628995" lon="9.5484552">
 <ele>438.2</ele>
 <time>2021-10-31T12:12:04.000Z</time>
 <name>Position 211</name>
 </trkpt>
 <trkpt lat="48.9627127" lon="9.5485536">
 <ele>438.3</ele>
 <time>2021-10-31T12:12:22.000Z</time>
 <name>Position 212</name>
 </trkpt>
 <trkpt lat="48.96253" lon="9.5486295">
 <ele>439.0</ele>
 <time>2021-10-31T12:12:42.000Z</time>
 <name>Position 213</name>
 </trkpt>
 <trkpt lat="48.9623494" lon="9.5487337">
 <ele>436.3</ele>
 <time>2021-10-31T12:13:12.000Z</time>
 <name>Position 214</name>
 </trkpt>
 <trkpt lat="48.9621625" lon="9.5487244">
 <ele>435.5</ele>
 <time>2021-10-31T12:13:34.000Z</time>
 <name>Position 215</name>
 </trkpt>
 <trkpt lat="48.9619908" lon="9.5486042">
 <ele>437.4</ele>
 <time>2021-10-31T12:13:54.000Z</time>
 <name>Position 216</name>
 </trkpt>
 <trkpt lat="48.9618263" lon="9.5484672">
 <ele>439.7</ele>
 <time>2021-10-31T12:14:22.000Z</time>
 <name>Position 217</name>
 </trkpt>
 <trkpt lat="48.9616948" lon="9.5482159">
 <ele>444.4</ele>
 <time>2021-10-31T12:14:44.000Z</time>
 <name>Position 218</name>
 </trkpt>
 <trkpt lat="48.9615174" lon="9.5481282">
 <ele>447.1</ele>
 <time>2021-10-31T12:15:06.000Z</time>
 <name>Position 219</name>
 </trkpt>
 <trkpt lat="48.9613409" lon="9.5481961">
 <ele>446.1</ele>
 <time>2021-10-31T12:15:22.000Z</time>
 <name>Position 220</name>
 </trkpt>
 <trkpt lat="48.9611557" lon="9.5483342">
 <ele>442.8</ele>
 <time>2021-10-31T12:15:42.000Z</time>
 <name>Position 221</name>
 </trkpt>
 <trkpt lat="48.9609752" lon="9.5483645">
 <ele>442.0</ele>
 <time>2021-10-31T12:16:00.000Z</time>
 <name>Position 222</name>
 </trkpt>
 <trkpt lat="48.9607889" lon="9.5483213">
 <ele>443.6</ele>
 <time>2021-10-31T12:16:23.000Z</time>
 <name>Position 223</name>
 </trkpt>
 <trkpt lat="48.9606044" lon="9.5482492">
 <ele>446.6</ele>
 <time>2021-10-31T12:17:51.000Z</time>
 <name>Position 224</name>
 </trkpt>
 <trkpt lat="48.96042" lon="9.5481857">
 <ele>449.6</ele>
 <time>2021-10-31T12:18:11.000Z</time>
 <name>Position 225</name>
 </trkpt>
 <trkpt lat="48.9602384" lon="9.5481381">
 <ele>451.9</ele>
 <time>2021-10-31T12:18:31.000Z</time>
 <name>Position 226</name>
 </trkpt>
 <trkpt lat="48.9600597" lon="9.5481037">
 <ele>453.8</ele>
 <time>2021-10-31T12:18:49.000Z</time>
 <name>Position 227</name>
 </trkpt>
 <trkpt lat="48.9598745" lon="9.5480511">
 <ele>455.7</ele>
 <time>2021-10-31T12:19:09.000Z</time>
 <name>Position 228</name>
 </trkpt>
 <trkpt lat="48.9596744" lon="9.548067">
 <ele>455.3</ele>
 <time>2021-10-31T12:19:27.000Z</time>
 <name>Position 229</name>
 </trkpt>
 <trkpt lat="48.9594881" lon="9.5480975">
 <ele>454.3</ele>
 <time>2021-10-31T12:19:45.000Z</time>
 <name>Position 230</name>
 </trkpt>
 <trkpt lat="48.9593031" lon="9.5481917">
 <ele>452.3</ele>
 <time>2021-10-31T12:20:21.000Z</time>
 <name>Position 231</name>
 </trkpt>
 <trkpt lat="48.9591104" lon="9.5482784">
 <ele>449.5</ele>
 <time>2021-10-31T12:21:21.000Z</time>
 <name>Position 232</name>
 </trkpt>
 <trkpt lat="48.9589145" lon="9.5483231">
 <ele>445.3</ele>
 <time>2021-10-31T12:21:43.000Z</time>
 <name>Position 233</name>
 </trkpt>
 <trkpt lat="48.9587657" lon="9.5484944">
 <ele>440.8</ele>
 <time>2021-10-31T12:22:07.000Z</time>
 <name>Position 234</name>
 </trkpt>
 <trkpt lat="48.9586008" lon="9.5486085">
 <ele>437.7</ele>
 <time>2021-10-31T12:22:29.000Z</time>
 <name>Position 235</name>
 </trkpt>
 <trkpt lat="48.9584176" lon="9.5485834">
 <ele>435.5</ele>
 <time>2021-10-31T12:22:53.000Z</time>
 <name>Position 236</name>
 </trkpt>
 <trkpt lat="48.9582291" lon="9.5484804">
 <ele>436.3</ele>
 <time>2021-10-31T12:23:17.000Z</time>
 <name>Position 237</name>
 </trkpt>
 <trkpt lat="48.9582082" lon="9.5487534">
 <ele>436.3</ele>
 <time>2021-10-31T12:25:33.000Z</time>
 <name>Position 238</name>
 </trkpt>
 <trkpt lat="48.9582875" lon="9.5490091">
 <ele>434.3</ele>
 <time>2021-10-31T12:30:09.000Z</time>
 <name>Position 239</name>
 </trkpt>
 <trkpt lat="48.9581143" lon="9.54889">
 <ele>437.5</ele>
 <time>2021-10-31T12:37:23.000Z</time>
 <name>Position 240</name>
 </trkpt>
 <trkpt lat="48.9580098" lon="9.5486665">
 <ele>439.9</ele>
 <time>2021-10-31T12:48:01.000Z</time>
 <name>Position 241</name>
 </trkpt>
 <trkpt lat="48.9580861" lon="9.5484069">
 <ele>439.2</ele>
 <time>2021-10-31T12:58:27.000Z</time>
 <name>Position 242</name>
 </trkpt>
 <trkpt lat="48.9579742" lon="9.5481561">
 <ele>442.3</ele>
 <time>2021-10-31T12:58:43.000Z</time>
 <name>Position 243</name>
 </trkpt>
 <trkpt lat="48.9578934" lon="9.5478998">
 <ele>444.8</ele>
 <time>2021-10-31T12:59:05.000Z</time>
 <name>Position 244</name>
 </trkpt>
 <trkpt lat="48.9578698" lon="9.5476098">
 <ele>446.3</ele>
 <time>2021-10-31T12:59:27.000Z</time>
 <name>Position 245</name>
 </trkpt>
 <trkpt lat="48.9578804" lon="9.5472914">
 <ele>447.4</ele>
 <time>2021-10-31T12:59:55.000Z</time>
 <name>Position 246</name>
 </trkpt>
 <trkpt lat="48.9577952" lon="9.5470392">
 <ele>448.6</ele>
 <time>2021-10-31T13:01:11.000Z</time>
 <name>Position 247</name>
 </trkpt>
 <trkpt lat="48.9577353" lon="9.5467715">
 <ele>449.5</ele>
 <time>2021-10-31T13:01:45.000Z</time>
 <name>Position 248</name>
 </trkpt>
 <trkpt lat="48.9577587" lon="9.5464637">
 <ele>449.7</ele>
 <time>2021-10-31T13:04:19.000Z</time>
 <name>Position 249</name>
 </trkpt>
 <trkpt lat="48.9576081" lon="9.5466156">
 <ele>449.8</ele>
 <time>2021-10-31T13:05:57.000Z</time>
 <name>Position 250</name>
 </trkpt>
 <trkpt lat="48.9574141" lon="9.5467164">
 <ele>451.8</ele>
 <time>2021-10-31T13:06:53.000Z</time>
 <name>Position 251</name>
 </trkpt>
 <trkpt lat="48.9572311" lon="9.5467131">
 <ele>455.9</ele>
 <time>2021-10-31T13:07:41.000Z</time>
 <name>Position 252</name>
 </trkpt>
 <trkpt lat="48.9570527" lon="9.546563">
 <ele>459.7</ele>
 <time>2021-10-31T13:08:37.000Z</time>
 <name>Position 253</name>
 </trkpt>
 <trkpt lat="48.9568531" lon="9.5465178">
 <ele>463.8</ele>
 <time>2021-10-31T13:09:15.000Z</time>
 <name>Position 254</name>
 </trkpt>
 <trkpt lat="48.9566558" lon="9.5465062">
 <ele>468.1</ele>
 <time>2021-10-31T13:09:41.000Z</time>
 <name>Position 255</name>
 </trkpt>
 <trkpt lat="48.9564697" lon="9.5464783">
 <ele>468.4</ele>
 <time>2021-10-31T13:10:05.000Z</time>
 <name>Position 256</name>
 </trkpt>
 <trkpt lat="48.9564098" lon="9.5467637">
 <ele>469.1</ele>
 <time>2021-10-31T13:10:51.000Z</time>
 <name>Position 257</name>
 </trkpt>
 <trkpt lat="48.956544" lon="9.5469653">
 <ele>468.3</ele>
 <time>2021-10-31T13:11:11.000Z</time>
 <name>Position 258</name>
 </trkpt>
 <trkpt lat="48.9566267" lon="9.5472346">
 <ele>467.2</ele>
 <time>2021-10-31T13:11:31.000Z</time>
 <name>Position 259</name>
 </trkpt>
 <trkpt lat="48.9567045" lon="9.5474972">
 <ele>465.5</ele>
 <time>2021-10-31T13:29:33.000Z</time>
 <name>Position 260</name>
 </trkpt>
 <trkpt lat="48.9567643" lon="9.5477891">
 <ele>463.9</ele>
 <time>2021-10-31T13:29:51.000Z</time>
 <name>Position 261</name>
 </trkpt>
 <trkpt lat="48.9567457" lon="9.5480815">
 <ele>463.8</ele>
 <time>2021-10-31T13:30:43.000Z</time>
 <name>Position 262</name>
 </trkpt>
 <trkpt lat="48.9567488" lon="9.5483574">
 <ele>463.5</ele>
 <time>2021-10-31T13:31:01.000Z</time>
 <name>Position 263</name>
 </trkpt>
 <trkpt lat="48.9567092" lon="9.5486383">
 <ele>464.5</ele>
 <time>2021-10-31T13:31:21.000Z</time>
 <name>Position 264</name>
 </trkpt>
 <trkpt lat="48.9566589" lon="9.5489082">
 <ele>465.7</ele>
 <time>2021-10-31T13:32:47.000Z</time>
 <name>Position 265</name>
 </trkpt>
 <trkpt lat="48.956594" lon="9.5491778">
 <ele>466.5</ele>
 <time>2021-10-31T13:33:17.000Z</time>
 <name>Position 266</name>
 </trkpt>
 <trkpt lat="48.956496" lon="9.5494315">
 <ele>467.6</ele>
 <time>2021-10-31T13:33:47.000Z</time>
 <name>Position 267</name>
 </trkpt>
 <trkpt lat="48.9564228" lon="9.5496896">
 <ele>468.3</ele>
 <time>2021-10-31T13:34:11.000Z</time>
 <name>Position 268</name>
 </trkpt>
 <trkpt lat="48.9563772" lon="9.5499775">
 <ele>468.7</ele>
 <time>2021-10-31T13:34:40.000Z</time>
 <name>Position 269</name>
 </trkpt>
 <trkpt lat="48.9563341" lon="9.5502503">
 <ele>468.0</ele>
 <time>2021-10-31T13:35:02.000Z</time>
 <name>Position 270</name>
 </trkpt>
 <trkpt lat="48.9563507" lon="9.5505486">
 <ele>466.8</ele>
 <time>2021-10-31T13:35:24.000Z</time>
 <name>Position 271</name>
 </trkpt>
 <trkpt lat="48.9563837" lon="9.5508459">
 <ele>465.7</ele>
 <time>2021-10-31T13:35:50.000Z</time>
 <name>Position 272</name>
 </trkpt>
 <trkpt lat="48.9563634" lon="9.5511207">
 <ele>464.6</ele>
 <time>2021-10-31T13:36:28.000Z</time>
 <name>Position 273</name>
 </trkpt>
 <trkpt lat="48.9563374" lon="9.5513933">
 <ele>463.5</ele>
 <time>2021-10-31T13:36:50.000Z</time>
 <name>Position 274</name>
 </trkpt>
 <trkpt lat="48.956316" lon="9.5516871">
 <ele>462.5</ele>
 <time>2021-10-31T13:37:04.000Z</time>
 <name>Position 275</name>
 </trkpt>
 <trkpt lat="48.956286" lon="9.55197">
 <ele>461.9</ele>
 <time>2021-10-31T13:37:18.000Z</time>
 <name>Position 276</name>
 </trkpt>
 <trkpt lat="48.956264" lon="9.5522496">
 <ele>461.2</ele>
 <time>2021-10-31T13:37:32.000Z</time>
 <name>Position 277</name>
 </trkpt>
 <trkpt lat="48.9562391" lon="9.5525246">
 <ele>460.6</ele>
 <time>2021-10-31T13:37:50.000Z</time>
 <name>Position 278</name>
 </trkpt>
 <trkpt lat="48.9562026" lon="9.5528378">
 <ele>460.9</ele>
 <time>2021-10-31T13:38:20.000Z</time>
 <name>Position 279</name>
 </trkpt>
 <trkpt lat="48.9561323" lon="9.5531302">
 <ele>460.8</ele>
 <time>2021-10-31T13:38:42.000Z</time>
 <name>Position 280</name>
 </trkpt>
 <trkpt lat="48.9559923" lon="9.5533366">
 <ele>460.0</ele>
 <time>2021-10-31T13:39:12.000Z</time>
 <name>Position 281</name>
 </trkpt>
 <trkpt lat="48.9558342" lon="9.5534844">
 <ele>458.9</ele>
 <time>2021-10-31T13:39:30.000Z</time>
 <name>Position 282</name>
 </trkpt>
 <trkpt lat="48.9557046" lon="9.553684">
 <ele>458.9</ele>
 <time>2021-10-31T13:39:48.000Z</time>
 <name>Position 283</name>
 </trkpt>
 <trkpt lat="48.9556071" lon="9.5539383">
 <ele>458.8</ele>
 <time>2021-10-31T13:40:16.000Z</time>
 <name>Position 284</name>
 </trkpt>
 <trkpt lat="48.9555256" lon="9.5542184">
 <ele>459.0</ele>
 <time>2021-10-31T13:40:36.000Z</time>
 <name>Position 285</name>
 </trkpt>
 <trkpt lat="48.9555751" lon="9.5544862">
 <ele>461.2</ele>
 <time>2021-10-31T13:41:04.000Z</time>
 <name>Position 286</name>
 </trkpt>
 <trkpt lat="48.9557558" lon="9.5544173">
 <ele>460.8</ele>
 <time>2021-10-31T13:41:46.000Z</time>
 <name>Position 287</name>
 </trkpt>
 <trkpt lat="48.9559309" lon="9.5543346">
 <ele>460.8</ele>
 <time>2021-10-31T13:42:04.000Z</time>
 <name>Position 288</name>
 </trkpt>
 <trkpt lat="48.9561024" lon="9.5541925">
 <ele>461.1</ele>
 <time>2021-10-31T13:42:26.000Z</time>
 <name>Position 289</name>
 </trkpt>
 <trkpt lat="48.9563044" lon="9.554168">
 <ele>463.0</ele>
 <time>2021-10-31T13:42:46.000Z</time>
 <name>Position 290</name>
 </trkpt>
 <trkpt lat="48.9564811" lon="9.5542589">
 <ele>465.8</ele>
 <time>2021-10-31T13:43:04.000Z</time>
 <name>Position 291</name>
 </trkpt>
 <trkpt lat="48.956595" lon="9.5540112">
 <ele>465.8</ele>
 <time>2021-10-31T13:43:42.000Z</time>
 <name>Position 292</name>
 </trkpt>
 <trkpt lat="48.9567072" lon="9.5537428">
 <ele>466.4</ele>
 <time>2021-10-31T13:44:24.000Z</time>
 <name>Position 293</name>
 </trkpt>
 <trkpt lat="48.9568345" lon="9.5535455">
 <ele>469.3</ele>
 <time>2021-10-31T13:45:16.000Z</time>
 <name>Position 294</name>
 </trkpt>
 <trkpt lat="48.9569618" lon="9.5533399">
 <ele>472.0</ele>
 <time>2021-10-31T13:46:08.000Z</time>
 <name>Position 295</name>
 </trkpt>
 <trkpt lat="48.9571259" lon="9.5532271">
 <ele>475.7</ele>
 <time>2021-10-31T13:46:32.000Z</time>
 <name>Position 296</name>
 </trkpt>
 <trkpt lat="48.9572971" lon="9.5531161">
 <ele>479.6</ele>
 <time>2021-10-31T13:47:12.000Z</time>
 <name>Position 297</name>
 </trkpt>
 <trkpt lat="48.9574849" lon="9.553013">
 <ele>483.8</ele>
 <time>2021-10-31T13:47:50.000Z</time>
 <name>Position 298</name>
 </trkpt>
 <trkpt lat="48.9576637" lon="9.5530462">
 <ele>486.2</ele>
 <time>2021-10-31T13:48:16.000Z</time>
 <name>Position 299</name>
 </trkpt>
 <trkpt lat="48.9578435" lon="9.5530912">
 <ele>488.2</ele>
 <time>2021-10-31T13:49:04.000Z</time>
 <name>Position 300</name>
 </trkpt>
 <trkpt lat="48.9579999" lon="9.553268">
 <ele>490.3</ele>
 <time>2021-10-31T13:49:36.000Z</time>
 <name>Position 301</name>
 </trkpt>
 <trkpt lat="48.958172" lon="9.5533772">
 <ele>491.9</ele>
 <time>2021-10-31T13:50:28.000Z</time>
 <name>Position 302</name>
 </trkpt>
 <trkpt lat="48.9583588" lon="9.5534149">
 <ele>493.6</ele>
 <time>2021-10-31T13:50:56.000Z</time>
 <name>Position 303</name>
 </trkpt>
 <trkpt lat="48.9585017" lon="9.5535884">
 <ele>496.4</ele>
 <time>2021-10-31T13:51:16.000Z</time>
 <name>Position 304</name>
 </trkpt>
 <trkpt lat="48.9586805" lon="9.5535574">
 <ele>498.8</ele>
 <time>2021-10-31T13:51:36.000Z</time>
 <name>Position 305</name>
 </trkpt>
 <trkpt lat="48.9588607" lon="9.553581">
 <ele>501.5</ele>
 <time>2021-10-31T13:53:56.000Z</time>
 <name>Position 306</name>
 </trkpt>
 <trkpt lat="48.9590536" lon="9.5536319">
 <ele>504.4</ele>
 <time>2021-10-31T13:54:16.000Z</time>
 <name>Position 307</name>
 </trkpt>
 <trkpt lat="48.9592402" lon="9.5537149">
 <ele>506.4</ele>
 <time>2021-10-31T13:54:36.000Z</time>
 <name>Position 308</name>
 </trkpt>
 <trkpt lat="48.9593946" lon="9.5538837">
 <ele>507.5</ele>
 <time>2021-10-31T13:54:54.000Z</time>
 <name>Position 309</name>
 </trkpt>
 <trkpt lat="48.9595418" lon="9.5540766">
 <ele>508.8</ele>
 <time>2021-10-31T13:55:10.000Z</time>
 <name>Position 310</name>
 </trkpt>
 <trkpt lat="48.9593926" lon="9.5542519">
 <ele>509.1</ele>
 <time>2021-10-31T13:55:38.000Z</time>
 <name>Position 311</name>
 </trkpt>
 <trkpt lat="48.959253" lon="9.5544636">
 <ele>509.6</ele>
 <time>2021-10-31T13:56:32.000Z</time>
 <name>Position 312</name>
 </trkpt>
 <trkpt lat="48.9591629" lon="9.5547319">
 <ele>510.6</ele>
 <time>2021-10-31T13:57:00.000Z</time>
 <name>Position 313</name>
 </trkpt>
 <trkpt lat="48.9590414" lon="9.5549349">
 <ele>510.4</ele>
 <time>2021-10-31T13:57:26.000Z</time>
 <name>Position 314</name>
 </trkpt>
 <trkpt lat="48.9589041" lon="9.5551385">
 <ele>510.8</ele>
 <time>2021-10-31T13:57:56.000Z</time>
 <name>Position 315</name>
 </trkpt>
 <trkpt lat="48.9588701" lon="9.5554228">
 <ele>513.4</ele>
 <time>2021-10-31T13:58:20.000Z</time>
 <name>Position 316</name>
 </trkpt>
 <trkpt lat="48.9588316" lon="9.5556915">
 <ele>515.8</ele>
 <time>2021-10-31T13:59:18.000Z</time>
 <name>Position 317</name>
 </trkpt>
 <trkpt lat="48.958828" lon="9.5559879">
 <ele>518.3</ele>
 <time>2021-10-31T13:59:44.000Z</time>
 <name>Position 318</name>
 </trkpt>
 <trkpt lat="48.9588735" lon="9.5562993">
 <ele>520.6</ele>
 <time>2021-10-31T14:00:12.000Z</time>
 <name>Position 319</name>
 </trkpt>
 <trkpt lat="48.9589013" lon="9.5566002">
 <ele>522.9</ele>
 <time>2021-10-31T14:01:06.000Z</time>
 <name>Position 320</name>
 </trkpt>
 <trkpt lat="48.9589386" lon="9.5568796">
 <ele>524.5</ele>
 <time>2021-10-31T14:01:34.000Z</time>
 <name>Position 321</name>
 </trkpt>
 <trkpt lat="48.9589423" lon="9.5571951">
 <ele>525.7</ele>
 <time>2021-10-31T14:01:58.000Z</time>
 <name>Position 322</name>
 </trkpt>
 <trkpt lat="48.9589473" lon="9.5574708">
 <ele>526.7</ele>
 <time>2021-10-31T14:02:18.000Z</time>
 <name>Position 323</name>
 </trkpt>
 <trkpt lat="48.9589926" lon="9.5577632">
 <ele>528.0</ele>
 <time>2021-10-31T14:02:42.000Z</time>
 <name>Position 324</name>
 </trkpt>
 <trkpt lat="48.9590523" lon="9.5580506">
 <ele>529.2</ele>
 <time>2021-10-31T14:03:02.000Z</time>
 <name>Position 325</name>
 </trkpt>
 <trkpt lat="48.9590498" lon="9.5583251">
 <ele>530.0</ele>
 <time>2021-10-31T14:03:52.000Z</time>
 <name>Position 326</name>
 </trkpt>
 <trkpt lat="48.9590593" lon="9.5586019">
 <ele>529.9</ele>
 <time>2021-10-31T14:04:14.000Z</time>
 <name>Position 327</name>
 </trkpt>
 <trkpt lat="48.9590218" lon="9.5588917">
 <ele>529.4</ele>
 <time>2021-10-31T14:04:38.000Z</time>
 <name>Position 328</name>
 </trkpt>
 <trkpt lat="48.9589459" lon="9.5591827">
 <ele>528.7</ele>
 <time>2021-10-31T14:05:00.000Z</time>
 <name>Position 329</name>
 </trkpt>
 <trkpt lat="48.958926" lon="9.5594747">
 <ele>528.9</ele>
 <time>2021-10-31T14:05:22.000Z</time>
 <name>Position 330</name>
 </trkpt>
 <trkpt lat="48.9589281" lon="9.5597838">
 <ele>529.3</ele>
 <time>2021-10-31T14:05:48.000Z</time>
 <name>Position 331</name>
 </trkpt>
 <trkpt lat="48.9588693" lon="9.5600519">
 <ele>529.5</ele>
 <time>2021-10-31T14:08:00.000Z</time>
 <name>Position 332</name>
 </trkpt>
 <trkpt lat="48.95885" lon="9.5603651">
 <ele>531.0</ele>
 <time>2021-10-31T14:08:22.000Z</time>
 <name>Position 333</name>
 </trkpt>
 <trkpt lat="48.9587814" lon="9.5606304">
 <ele>532.3</ele>
 <time>2021-10-31T14:09:10.000Z</time>
 <name>Position 334</name>
 </trkpt>
 <trkpt lat="48.9586878" lon="9.5608655">
 <ele>533.6</ele>
 <time>2021-10-31T14:09:38.000Z</time>
 <name>Position 335</name>
 </trkpt>
 <trkpt lat="48.9586107" lon="9.5611389">
 <ele>535.0</ele>
 <time>2021-10-31T14:10:08.000Z</time>
 <name>Position 336</name>
 </trkpt>
 <trkpt lat="48.9584534" lon="9.5612965">
 <ele>535.8</ele>
 <time>2021-10-31T14:13:20.000Z</time>
 <name>Position 337</name>
 </trkpt>
 <trkpt lat="48.9582792" lon="9.5614203">
 <ele>536.4</ele>
 <time>2021-10-31T14:14:00.000Z</time>
 <name>Position 338</name>
 </trkpt>
 <trkpt lat="48.9581306" lon="9.5616045">
 <ele>537.3</ele>
 <time>2021-10-31T14:14:52.000Z</time>
 <name>Position 339</name>
 </trkpt>
 <trkpt lat="48.9579415" lon="9.5617012">
 <ele>537.6</ele>
 <time>2021-10-31T14:15:36.000Z</time>
 <name>Position 340</name>
 </trkpt>
 <trkpt lat="48.9577747" lon="9.5618099">
 <ele>537.5</ele>
 <time>2021-10-31T14:16:18.000Z</time>
 <name>Position 341</name>
 </trkpt>
 <trkpt lat="48.9575964" lon="9.5618628">
 <ele>537.2</ele>
 <time>2021-10-31T14:17:26.000Z</time>
 <name>Position 342</name>
 </trkpt>
 <trkpt lat="48.9574174" lon="9.5619605">
 <ele>536.1</ele>
 <time>2021-10-31T14:18:10.000Z</time>
 <name>Position 343</name>
 </trkpt>
 <trkpt lat="48.957289" lon="9.5621936">
 <ele>534.8</ele>
 <time>2021-10-31T14:18:42.000Z</time>
 <name>Position 344</name>
 </trkpt>
 <trkpt lat="48.957173" lon="9.5624263">
 <ele>533.9</ele>
 <time>2021-10-31T14:19:04.000Z</time>
 <name>Position 345</name>
 </trkpt>
 <trkpt lat="48.9570628" lon="9.5626661">
 <ele>533.4</ele>
 <time>2021-10-31T14:19:52.000Z</time>
 <name>Position 346</name>
 </trkpt>
 <trkpt lat="48.9569332" lon="9.5628995">
 <ele>533.2</ele>
 <time>2021-10-31T14:20:18.000Z</time>
 <name>Position 347</name>
 </trkpt>
 <trkpt lat="48.9567813" lon="9.5630758">
 <ele>532.7</ele>
 <time>2021-10-31T14:20:40.000Z</time>
 <name>Position 348</name>
 </trkpt>
 <trkpt lat="48.9566117" lon="9.5632701">
 <ele>532.4</ele>
 <time>2021-10-31T14:21:10.000Z</time>
 <name>Position 349</name>
 </trkpt>
 <trkpt lat="48.9564473" lon="9.5634328">
 <ele>532.6</ele>
 <time>2021-10-31T14:21:34.000Z</time>
 <name>Position 350</name>
 </trkpt>
 <trkpt lat="48.9562931" lon="9.5635868">
 <ele>533.0</ele>
 <time>2021-10-31T14:21:58.000Z</time>
 <name>Position 351</name>
 </trkpt>
 <trkpt lat="48.956157" lon="9.5637708">
 <ele>533.7</ele>
 <time>2021-10-31T14:22:24.000Z</time>
 <name>Position 352</name>
 </trkpt>
 <trkpt lat="48.9560537" lon="9.5640146">
 <ele>534.9</ele>
 <time>2021-10-31T14:22:46.000Z</time>
 <name>Position 353</name>
 </trkpt>
 <trkpt lat="48.9559908" lon="9.5642743">
 <ele>536.1</ele>
 <time>2021-10-31T14:23:18.000Z</time>
 <name>Position 354</name>
 </trkpt>
 <trkpt lat="48.9558523" lon="9.5644503">
 <ele>535.8</ele>
 <time>2021-10-31T14:23:50.000Z</time>
 <name>Position 355</name>
 </trkpt>
 <trkpt lat="48.9557556" lon="9.5646867">
 <ele>535.1</ele>
 <time>2021-10-31T14:24:12.000Z</time>
 <name>Position 356</name>
 </trkpt>
 <trkpt lat="48.9556319" lon="9.5649077">
 <ele>533.8</ele>
 <time>2021-10-31T14:25:14.000Z</time>
 <name>Position 357</name>
 </trkpt>
 <trkpt lat="48.9555547" lon="9.5651938">
 <ele>533.0</ele>
 <time>2021-10-31T14:25:58.000Z</time>
 <name>Position 358</name>
 </trkpt>
 <trkpt lat="48.9554979" lon="9.5654702">
 <ele>532.3</ele>
 <time>2021-10-31T14:27:13.000Z</time>
 <name>Position 359</name>
 </trkpt>
 <trkpt lat="48.955429" lon="9.5657305">
 <ele>531.6</ele>
 <time>2021-10-31T14:27:35.000Z</time>
 <name>Position 360</name>
 </trkpt>
 <trkpt lat="48.9554183" lon="9.5660237">
 <ele>531.7</ele>
 <time>2021-10-31T14:28:22.000Z</time>
 <name>Position 361</name>
 </trkpt>
 <trkpt lat="48.9554177" lon="9.5663071">
 <ele>532.1</ele>
 <time>2021-10-31T14:28:52.000Z</time>
 <name>Position 362</name>
 </trkpt>
 <trkpt lat="48.9554506" lon="9.5665972">
 <ele>532.8</ele>
 <time>2021-10-31T14:29:16.000Z</time>
 <name>Position 363</name>
 </trkpt>
 <trkpt lat="48.9554891" lon="9.5668681">
 <ele>533.0</ele>
 <time>2021-10-31T14:29:52.000Z</time>
 <name>Position 364</name>
 </trkpt>
 <trkpt lat="48.9554984" lon="9.5671671">
 <ele>532.6</ele>
 <time>2021-10-31T14:30:28.000Z</time>
 <name>Position 365</name>
 </trkpt>
 <trkpt lat="48.9554776" lon="9.5674546">
 <ele>531.8</ele>
 <time>2021-10-31T14:30:52.000Z</time>
 <name>Position 366</name>
 </trkpt>
 <trkpt lat="48.9555077" lon="9.5677579">
 <ele>531.0</ele>
 <time>2021-10-31T14:31:22.000Z</time>
 <name>Position 367</name>
 </trkpt>
 <trkpt lat="48.9555106" lon="9.5680441">
 <ele>529.7</ele>
 <time>2021-10-31T14:32:07.000Z</time>
 <name>Position 368</name>
 </trkpt>
 <trkpt lat="48.9555761" lon="9.5683021">
 <ele>529.4</ele>
 <time>2021-10-31T14:32:27.000Z</time>
 <name>Position 369</name>
 </trkpt>
 <trkpt lat="48.9556568" lon="9.5685493">
 <ele>528.6</ele>
 <time>2021-10-31T14:33:07.000Z</time>
 <name>Position 370</name>
 </trkpt>
 <trkpt lat="48.9557905" lon="9.5687648">
 <ele>528.8</ele>
 <time>2021-10-31T14:33:27.000Z</time>
 <name>Position 371</name>
 </trkpt>
 <trkpt lat="48.9559312" lon="9.5689365">
 <ele>529.2</ele>
 <time>2021-10-31T14:33:49.000Z</time>
 <name>Position 372</name>
 </trkpt>
 <trkpt lat="48.956092" lon="9.5690859">
 <ele>530.2</ele>
 <time>2021-10-31T14:34:13.000Z</time>
 <name>Position 373</name>
 </trkpt>
 <trkpt lat="48.9562329" lon="9.5692841">
 <ele>530.9</ele>
 <time>2021-10-31T14:34:33.000Z</time>
 <name>Position 374</name>
 </trkpt>
 <trkpt lat="48.9563554" lon="9.5694872">
 <ele>531.1</ele>
 <time>2021-10-31T14:34:59.000Z</time>
 <name>Position 375</name>
 </trkpt>
 <trkpt lat="48.9564975" lon="9.5696771">
 <ele>531.5</ele>
 <time>2021-10-31T14:35:25.000Z</time>
 <name>Position 376</name>
 </trkpt>
 <trkpt lat="48.956628" lon="9.5698909">
 <ele>531.4</ele>
 <time>2021-10-31T14:36:31.000Z</time>
 <name>Position 377</name>
 </trkpt>
 <trkpt lat="48.9567656" lon="9.5701085">
 <ele>530.6</ele>
 <time>2021-10-31T14:36:49.000Z</time>
 <name>Position 378</name>
 </trkpt>
 <trkpt lat="48.9568821" lon="9.5703423">
 <ele>528.9</ele>
 <time>2021-10-31T14:37:07.000Z</time>
 <name>Position 379</name>
 </trkpt>
 <trkpt lat="48.9570154" lon="9.5705454">
 <ele>527.7</ele>
 <time>2021-10-31T14:37:35.000Z</time>
 <name>Position 380</name>
 </trkpt>
 <trkpt lat="48.9571409" lon="9.5707639">
 <ele>526.4</ele>
 <time>2021-10-31T14:37:55.000Z</time>
 <name>Position 381</name>
 </trkpt>
 <trkpt lat="48.9572832" lon="9.5709662">
 <ele>525.5</ele>
 <time>2021-10-31T14:38:17.000Z</time>
 <name>Position 382</name>
 </trkpt>
 <trkpt lat="48.9573815" lon="9.5712124">
 <ele>523.7</ele>
 <time>2021-10-31T14:38:43.000Z</time>
 <name>Position 383</name>
 </trkpt>
 <trkpt lat="48.9574625" lon="9.57147">
 <ele>521.8</ele>
 <time>2021-10-31T14:39:03.000Z</time>
 <name>Position 384</name>
 </trkpt>
 <trkpt lat="48.9575665" lon="9.5717163">
 <ele>520.3</ele>
 <time>2021-10-31T14:39:25.000Z</time>
 <name>Position 385</name>
 </trkpt>
 <trkpt lat="48.9577337" lon="9.5718808">
 <ele>520.3</ele>
 <time>2021-10-31T14:39:57.000Z</time>
 <name>Position 386</name>
 </trkpt>
 <trkpt lat="48.9579021" lon="9.5719942">
 <ele>520.1</ele>
 <time>2021-10-31T14:40:19.000Z</time>
 <name>Position 387</name>
 </trkpt>
 <trkpt lat="48.9580807" lon="9.5720445">
 <ele>520.2</ele>
 <time>2021-10-31T14:40:43.000Z</time>
 <name>Position 388</name>
 </trkpt>
 <trkpt lat="48.958263" lon="9.5721006">
 <ele>520.0</ele>
 <time>2021-10-31T14:41:09.000Z</time>
 <name>Position 389</name>
 </trkpt>
 <trkpt lat="48.9584502" lon="9.5720969">
 <ele>520.8</ele>
 <time>2021-10-31T14:41:37.000Z</time>
 <name>Position 390</name>
 </trkpt>
 <trkpt lat="48.9586447" lon="9.5721135">
 <ele>521.5</ele>
 <time>2021-10-31T14:42:21.000Z</time>
 <name>Position 391</name>
 </trkpt>
 <trkpt lat="48.9588365" lon="9.5720754">
 <ele>522.9</ele>
 <time>2021-10-31T14:42:51.000Z</time>
 <name>Position 392</name>
 </trkpt>
 <trkpt lat="48.959008" lon="9.5721686">
 <ele>522.8</ele>
 <time>2021-10-31T14:43:15.000Z</time>
 <name>Position 393</name>
 </trkpt>
 <trkpt lat="48.9591965" lon="9.5721567">
 <ele>523.9</ele>
 <time>2021-10-31T14:43:45.000Z</time>
 <name>Position 394</name>
 </trkpt>
 <trkpt lat="48.9593141" lon="9.5723893">
 <ele>522.6</ele>
 <time>2021-10-31T14:45:20.000Z</time>
 <name>Position 395</name>
 </trkpt>
 <trkpt lat="48.9594425" lon="9.5725846">
 <ele>522.4</ele>
 <time>2021-10-31T14:45:36.000Z</time>
 <name>Position 396</name>
 </trkpt>
 <trkpt lat="48.9595917" lon="9.5728069">
 <ele>523.1</ele>
 <time>2021-10-31T14:45:58.000Z</time>
 <name>Position 397</name>
 </trkpt>
 <trkpt lat="48.9597263" lon="9.5729954">
 <ele>524.0</ele>
 <time>2021-10-31T14:46:14.000Z</time>
 <name>Position 398</name>
 </trkpt>
 <trkpt lat="48.9598833" lon="9.5731437">
 <ele>525.2</ele>
 <time>2021-10-31T14:46:32.000Z</time>
 <name>Position 399</name>
 </trkpt>
 <trkpt lat="48.9600722" lon="9.5732053">
 <ele>525.8</ele>
 <time>2021-10-31T14:46:56.000Z</time>
 <name>Position 400</name>
 </trkpt>
 <trkpt lat="48.9602477" lon="9.5732911">
 <ele>523.8</ele>
 <time>2021-10-31T14:47:26.000Z</time>
 <name>Position 401</name>
 </trkpt>
 <trkpt lat="48.9603667" lon="9.5730545">
 <ele>524.1</ele>
 <time>2021-10-31T14:47:48.000Z</time>
 <name>Position 402</name>
 </trkpt>
 <trkpt lat="48.9605582" lon="9.573046">
 <ele>522.8</ele>
 <time>2021-10-31T14:48:06.000Z</time>
 <name>Position 403</name>
 </trkpt>
 <trkpt lat="48.9607311" lon="9.5731327">
 <ele>520.8</ele>
 <time>2021-10-31T14:48:28.000Z</time>
 <name>Position 404</name>
 </trkpt>
 <trkpt lat="48.9609207" lon="9.573094">
 <ele>519.7</ele>
 <time>2021-10-31T14:48:46.000Z</time>
 <name>Position 405</name>
 </trkpt>
 <trkpt lat="48.9611083" lon="9.5730561">
 <ele>518.5</ele>
 <time>2021-10-31T14:49:02.000Z</time>
 <name>Position 406</name>
 </trkpt>
 <trkpt lat="48.9612338" lon="9.5732611">
 <ele>515.8</ele>
 <time>2021-10-31T14:49:16.000Z</time>
 <name>Position 407</name>
 </trkpt>
 <trkpt lat="48.9613333" lon="9.5735066">
 <ele>514.3</ele>
 <time>2021-10-31T14:49:34.000Z</time>
 <name>Position 408</name>
 </trkpt>
 <trkpt lat="48.9614974" lon="9.5736421">
 <ele>513.1</ele>
 <time>2021-10-31T14:49:54.000Z</time>
 <name>Position 409</name>
 </trkpt>
 <trkpt lat="48.9615407" lon="9.5733755">
 <ele>512.9</ele>
 <time>2021-10-31T14:50:16.000Z</time>
 <name>Position 410</name>
 </trkpt>
 <trkpt lat="48.961509" lon="9.5736497">
 <ele>513.0</ele>
 <time>2021-10-31T14:50:50.000Z</time>
 <name>Position 411</name>
 </trkpt>
 <trkpt lat="48.9615943" lon="9.5734011">
 <ele>512.5</ele>
 <time>2021-10-31T14:51:14.000Z</time>
 <name>Position 412</name>
 </trkpt>
 <trkpt lat="48.9617374" lon="9.5732181">
 <ele>512.2</ele>
 <time>2021-10-31T14:51:48.000Z</time>
 <name>Position 413</name>
 </trkpt>
 <trkpt lat="48.9619274" lon="9.5732691">
 <ele>510.2</ele>
 <time>2021-10-31T14:52:40.000Z</time>
 <name>Position 414</name>
 </trkpt>
 <trkpt lat="48.9621209" lon="9.5733221">
 <ele>508.3</ele>
 <time>2021-10-31T14:53:10.000Z</time>
 <name>Position 415</name>
 </trkpt>
 <trkpt lat="48.9623081" lon="9.573195">
 <ele>507.1</ele>
 <time>2021-10-31T14:53:42.000Z</time>
 <name>Position 416</name>
 </trkpt>
 <trkpt lat="48.9624943" lon="9.5732506">
 <ele>505.2</ele>
 <time>2021-10-31T14:54:42.000Z</time>
 <name>Position 417</name>
 </trkpt>
 <trkpt lat="48.9626757" lon="9.5733387">
 <ele>501.6</ele>
 <time>2021-10-31T14:55:08.000Z</time>
 <name>Position 418</name>
 </trkpt>
 <trkpt lat="48.9628728" lon="9.5733461">
 <ele>497.6</ele>
 <time>2021-10-31T14:56:02.000Z</time>
 <name>Position 419</name>
 </trkpt>
 <trkpt lat="48.9630876" lon="9.5733567">
 <ele>493.4</ele>
 <time>2021-10-31T14:57:06.000Z</time>
 <name>Position 420</name>
 </trkpt>
 <trkpt lat="48.9632837" lon="9.5733206">
 <ele>489.2</ele>
 <time>2021-10-31T14:57:34.000Z</time>
 <name>Position 421</name>
 </trkpt>
 <trkpt lat="48.9634454" lon="9.573449">
 <ele>488.2</ele>
 <time>2021-10-31T14:58:26.000Z</time>
 <name>Position 422</name>
 </trkpt>
 <trkpt lat="48.9636229" lon="9.5733751">
 <ele>487.4</ele>
 <time>2021-10-31T15:03:31.000Z</time>
 <name>Position 423</name>
 </trkpt>
 <trkpt lat="48.9638374" lon="9.5733302">
 <ele>486.8</ele>
 <time>2021-10-31T15:03:53.000Z</time>
 <name>Position 424</name>
 </trkpt>
 <trkpt lat="48.9640068" lon="9.5734648">
 <ele>486.3</ele>
 <time>2021-10-31T15:04:22.000Z</time>
 <name>Position 425</name>
 </trkpt>
 <trkpt lat="48.9641798" lon="9.5735632">
 <ele>485.5</ele>
 <time>2021-10-31T15:04:40.000Z</time>
 <name>Position 426</name>
 </trkpt>
 <trkpt lat="48.9643475" lon="9.5737129">
 <ele>484.8</ele>
 <time>2021-10-31T15:05:08.000Z</time>
 <name>Position 427</name>
 </trkpt>
 <trkpt lat="48.9644585" lon="9.5739323">
 <ele>484.3</ele>
 <time>2021-10-31T15:05:22.000Z</time>
 <name>Position 428</name>
 </trkpt>
 <trkpt lat="48.9645531" lon="9.5741833">
 <ele>483.9</ele>
 <time>2021-10-31T15:05:51.000Z</time>
 <name>Position 429</name>
 </trkpt>
 <trkpt lat="48.9646781" lon="9.5744443">
 <ele>482.3</ele>
 <time>2021-10-31T15:06:09.000Z</time>
 <name>Position 430</name>
 </trkpt>
 <trkpt lat="48.964842" lon="9.574629">
 <ele>480.8</ele>
 <time>2021-10-31T15:06:31.000Z</time>
 <name>Position 431</name>
 </trkpt>
 <trkpt lat="48.9649726" lon="9.5748526">
 <ele>479.2</ele>
 <time>2021-10-31T15:06:49.000Z</time>
 <name>Position 432</name>
 </trkpt>
 <trkpt lat="48.9651545" lon="9.5748383">
 <ele>478.4</ele>
 <time>2021-10-31T15:07:13.000Z</time>
 <name>Position 433</name>
 </trkpt>
 <trkpt lat="48.9652994" lon="9.5750285">
 <ele>476.6</ele>
 <time>2021-10-31T15:22:55.000Z</time>
 <name>Position 434</name>
 </trkpt>
 <trkpt lat="48.9654642" lon="9.575179">
 <ele>475.3</ele>
 <time>2021-10-31T15:24:19.000Z</time>
 <name>Position 435</name>
 </trkpt>
 <trkpt lat="48.9656057" lon="9.5753762">
 <ele>473.9</ele>
 <time>2021-10-31T15:24:45.000Z</time>
 <name>Position 436</name>
 </trkpt>
 <trkpt lat="48.965735" lon="9.5755766">
 <ele>472.5</ele>
 <time>2021-10-31T15:25:21.000Z</time>
 <name>Position 437</name>
 </trkpt>
 <trkpt lat="48.9659128" lon="9.5757008">
 <ele>469.6</ele>
 <time>2021-10-31T15:26:11.000Z</time>
 <name>Position 438</name>
 </trkpt>
 <trkpt lat="48.9659985" lon="9.5759683">
 <ele>466.6</ele>
 <time>2021-10-31T15:28:37.000Z</time>
 <name>Position 439</name>
 </trkpt>
 <trkpt lat="48.9661836" lon="9.576077">
 <ele>461.8</ele>
 <time>2021-10-31T15:30:05.000Z</time>
 <name>Position 440</name>
 </trkpt>
 <trkpt lat="48.9663642" lon="9.5760913">
 <ele>456.8</ele>
 <time>2021-10-31T15:30:59.000Z</time>
 <name>Position 441</name>
 </trkpt>
 <trkpt lat="48.9665056" lon="9.57591">
 <ele>452.6</ele>
 <time>2021-10-31T15:33:05.000Z</time>
 <name>Position 442</name>
 </trkpt>
 <trkpt lat="48.9664851" lon="9.5761867">
 <ele>453.3</ele>
 <time>2021-10-31T15:34:47.000Z</time>
 <name>Position 443</name>
 </trkpt>
 <trkpt lat="48.9666707" lon="9.5761329">
 <ele>448.5</ele>
 <time>2021-10-31T15:35:44.000Z</time>
 <name>Position 444</name>
 </trkpt>
 <trkpt lat="48.9668726" lon="9.5761087">
 <ele>444.2</ele>
 <time>2021-10-31T15:37:32.000Z</time>
 <name>Position 445</name>
 </trkpt>
 <trkpt lat="48.967057" lon="9.5761468">
 <ele>440.3</ele>
 <time>2021-10-31T15:38:06.000Z</time>
 <name>Position 446</name>
 </trkpt>
 <trkpt lat="48.9672274" lon="9.5760073">
 <ele>437.1</ele>
 <time>2021-10-31T15:40:30.000Z</time>
 <name>Position 447</name>
 </trkpt>
 <trkpt lat="48.9674056" lon="9.5760611">
 <ele>433.2</ele>
 <time>2021-10-31T15:41:16.000Z</time>
 <name>Position 448</name>
 </trkpt>
 <trkpt lat="48.9675822" lon="9.5761435">
 <ele>430.3</ele>
 <time>2021-10-31T15:41:48.000Z</time>
 <name>Position 449</name>
 </trkpt>
 <trkpt lat="48.9677677" lon="9.5761896">
 <ele>428.7</ele>
 <time>2021-10-31T15:42:58.000Z</time>
 <name>Position 450</name>
 </trkpt>
 <trkpt lat="48.9679495" lon="9.5762967">
 <ele>426.5</ele>
 <time>2021-10-31T15:43:40.000Z</time>
 <name>Position 451</name>
 </trkpt>
 <trkpt lat="48.9681088" lon="9.576425">
 <ele>423.9</ele>
 <time>2021-10-31T15:44:08.000Z</time>
 <name>Position 452</name>
 </trkpt>
 <trkpt lat="48.9682913" lon="9.5764392">
 <ele>422.0</ele>
 <time>2021-10-31T15:44:52.000Z</time>
 <name>Position 453</name>
 </trkpt>
 <trkpt lat="48.9683631" lon="9.5766939">
 <ele>418.7</ele>
 <time>2021-10-31T15:45:26.000Z</time>
 <name>Position 454</name>
 </trkpt>
 <trkpt lat="48.9685413" lon="9.5767812">
 <ele>415.8</ele>
 <time>2021-10-31T15:46:18.000Z</time>
 <name>Position 455</name>
 </trkpt>
 <trkpt lat="48.9687086" lon="9.5768839">
 <ele>413.1</ele>
 <time>2021-10-31T15:46:48.000Z</time>
 <name>Position 456</name>
 </trkpt>
 <trkpt lat="48.9688682" lon="9.5770426">
 <ele>410.4</ele>
 <time>2021-10-31T15:47:08.000Z</time>
 <name>Position 457</name>
 </trkpt>
 <trkpt lat="48.9690275" lon="9.577209">
 <ele>407.2</ele>
 <time>2021-10-31T15:47:40.000Z</time>
 <name>Position 458</name>
 </trkpt>
 <trkpt lat="48.9692121" lon="9.57724">
 <ele>403.8</ele>
 <time>2021-10-31T15:48:22.000Z</time>
 <name>Position 459</name>
 </trkpt>
 <trkpt lat="48.9693913" lon="9.5771891">
 <ele>402.9</ele>
 <time>2021-10-31T15:48:50.000Z</time>
 <name>Position 460</name>
 </trkpt>
 <trkpt lat="48.9695781" lon="9.5771672">
 <ele>401.9</ele>
 <time>2021-10-31T15:49:14.000Z</time>
 <name>Position 461</name>
 </trkpt>
 <trkpt lat="48.9697815" lon="9.5771167">
 <ele>400.8</ele>
 <time>2021-10-31T15:49:40.000Z</time>
 <name>Position 462</name>
 </trkpt>
 <trkpt lat="48.9699643" lon="9.5770657">
 <ele>399.7</ele>
 <time>2021-10-31T15:50:20.000Z</time>
 <name>Position 463</name>
 </trkpt>
 <trkpt lat="48.9701489" lon="9.5769922">
 <ele>397.3</ele>
 <time>2021-10-31T15:50:50.000Z</time>
 <name>Position 464</name>
 </trkpt>
 <trkpt lat="48.9703274" lon="9.576943">
 <ele>394.6</ele>
 <time>2021-10-31T15:51:24.000Z</time>
 <name>Position 465</name>
 </trkpt>
 <trkpt lat="48.9705303" lon="9.5769432">
 <ele>391.6</ele>
 <time>2021-10-31T15:51:54.000Z</time>
 <name>Position 466</name>
 </trkpt>
 <trkpt lat="48.9707389" lon="9.5769366">
 <ele>388.5</ele>
 <time>2021-10-31T15:52:30.000Z</time>
 <name>Position 467</name>
 </trkpt>
 <trkpt lat="48.9709301" lon="9.5769776">
 <ele>384.6</ele>
 <time>2021-10-31T15:52:50.000Z</time>
 <name>Position 468</name>
 </trkpt>
 <trkpt lat="48.9711053" lon="9.5771001">
 <ele>379.8</ele>
 <time>2021-10-31T15:53:22.000Z</time>
 <name>Position 469</name>
 </trkpt>
 <trkpt lat="48.9712908" lon="9.5772236">
 <ele>374.3</ele>
 <time>2021-10-31T15:53:40.000Z</time>
 <name>Position 470</name>
 </trkpt>
 <trkpt lat="48.9714608" lon="9.5773206">
 <ele>368.7</ele>
 <time>2021-10-31T15:53:58.000Z</time>
 <name>Position 471</name>
 </trkpt>
 <trkpt lat="48.9716647" lon="9.5773341">
 <ele>362.3</ele>
 <time>2021-10-31T15:54:50.000Z</time>
 <name>Position 472</name>
 </trkpt>
 <trkpt lat="48.9718465" lon="9.5772678">
 <ele>358.5</ele>
 <time>2021-10-31T15:55:06.000Z</time>
 <name>Position 473</name>
 </trkpt>
 <trkpt lat="48.9720366" lon="9.5772578">
 <ele>354.5</ele>
 <time>2021-10-31T15:56:10.000Z</time>
 <name>Position 474</name>
 </trkpt>
 <trkpt lat="48.9722241" lon="9.5772916">
 <ele>350.6</ele>
 <time>2021-10-31T15:56:28.000Z</time>
 <name>Position 475</name>
 </trkpt>
 <trkpt lat="48.9724286" lon="9.5773243">
 <ele>346.1</ele>
 <time>2021-10-31T15:56:44.000Z</time>
 <name>Position 476</name>
 </trkpt>
 <trkpt lat="48.9725901" lon="9.5774898">
 <ele>341.8</ele>
 <time>2021-10-31T15:57:02.000Z</time>
 <name>Position 477</name>
 </trkpt>
 <trkpt lat="48.9727578" lon="9.5776553">
 <ele>341.9</ele>
 <time>2021-10-31T15:57:22.000Z</time>
 <name>Position 478</name>
 </trkpt>
 <trkpt lat="48.9729045" lon="9.5778332">
 <ele>342.3</ele>
 <time>2021-10-31T15:57:38.000Z</time>
 <name>Position 479</name>
 </trkpt>
 <trkpt lat="48.9730508" lon="9.5780486">
 <ele>342.6</ele>
 <time>2021-10-31T15:58:02.000Z</time>
 <name>Position 480</name>
 </trkpt>
 <trkpt lat="48.9731769" lon="9.5782622">
 <ele>342.4</ele>
 <time>2021-10-31T15:58:18.000Z</time>
 <name>Position 481</name>
 </trkpt>
 <trkpt lat="48.9733384" lon="9.5784068">
 <ele>340.1</ele>
 <time>2021-10-31T15:58:38.000Z</time>
 <name>Position 482</name>
 </trkpt>
 <trkpt lat="48.973515" lon="9.5785324">
 <ele>338.9</ele>
 <time>2021-10-31T15:58:56.000Z</time>
 <name>Position 483</name>
 </trkpt>
 <trkpt lat="48.9736666" lon="9.5786799">
 <ele>337.7</ele>
 <time>2021-10-31T15:59:31.000Z</time>
 <name>Position 484</name>
 </trkpt>
 <trkpt lat="48.9738478" lon="9.5787924">
 <ele>335.3</ele>
 <time>2021-10-31T15:59:51.000Z</time>
 <name>Position 485</name>
 </trkpt>
 <trkpt lat="48.9739989" lon="9.5789572">
 <ele>333.0</ele>
 <time>2021-10-31T16:00:11.000Z</time>
 <name>Position 486</name>
 </trkpt>
 <trkpt lat="48.9741125" lon="9.5792087">
 <ele>331.7</ele>
 <time>2021-10-31T16:00:31.000Z</time>
 <name>Position 487</name>
 </trkpt>
 <trkpt lat="48.974261" lon="9.5793654">
 <ele>329.3</ele>
 <time>2021-10-31T16:00:56.000Z</time>
 <name>Position 488</name>
 </trkpt>
 <trkpt lat="48.9744101" lon="9.5795337">
 <ele>327.2</ele>
 <time>2021-10-31T16:01:14.000Z</time>
 <name>Position 489</name>
 </trkpt>
 <trkpt lat="48.9745891" lon="9.5795807">
 <ele>323.8</ele>
 <time>2021-10-31T16:01:46.000Z</time>
 <name>Position 490</name>
 </trkpt>
 <trkpt lat="48.9747753" lon="9.5796166">
 <ele>320.1</ele>
 <time>2021-10-31T16:02:09.000Z</time>
 <name>Position 491</name>
 </trkpt>
 <trkpt lat="48.9749565" lon="9.5796646">
 <ele>316.5</ele>
 <time>2021-10-31T16:02:29.000Z</time>
 <name>Position 492</name>
 </trkpt>
 <trkpt lat="48.975143" lon="9.5797289">
 <ele>314.0</ele>
 <time>2021-10-31T16:02:53.000Z</time>
 <name>Position 493</name>
 </trkpt>
 <trkpt lat="48.9753215" lon="9.5798205">
 <ele>312.2</ele>
 <time>2021-10-31T16:03:11.000Z</time>
 <name>Position 494</name>
 </trkpt>
 <trkpt lat="48.975526" lon="9.5798578">
 <ele>309.9</ele>
 <time>2021-10-31T16:03:34.000Z</time>
 <name>Position 495</name>
 </trkpt>
 <trkpt lat="48.975704" lon="9.5797914">
 <ele>307.5</ele>
 <time>2021-10-31T16:03:48.000Z</time>
 <name>Position 496</name>
 </trkpt>
 <trkpt lat="48.9758933" lon="9.5797156">
 <ele>305.2</ele>
 <time>2021-10-31T16:04:04.000Z</time>
 <name>Position 497</name>
 </trkpt>
 <trkpt lat="48.9760872" lon="9.5796799">
 <ele>303.3</ele>
 <time>2021-10-31T16:04:22.000Z</time>
 <name>Position 498</name>
 </trkpt>
 <trkpt lat="48.9762574" lon="9.5795901">
 <ele>301.5</ele>
 <time>2021-10-31T16:04:38.000Z</time>
 <name>Position 499</name>
 </trkpt>
 <trkpt lat="48.9763796" lon="9.5793633">
 <ele>300.0</ele>
 <time>2021-10-31T16:05:08.000Z</time>
 <name>Position 500</name>
 </trkpt>
 <trkpt lat="48.976397" lon="9.5790793">
 <ele>299.8</ele>
 <time>2021-10-31T16:05:24.000Z</time>
 <name>Position 501</name>
 </trkpt>
 <trkpt lat="48.976334" lon="9.5788105">
 <ele>300.9</ele>
 <time>2021-10-31T16:05:54.000Z</time>
 <name>Position 502</name>
 </trkpt>
 <trkpt lat="48.9765217" lon="9.5787027">
 <ele>299.5</ele>
 <time>2021-10-31T16:06:14.000Z</time>
 <name>Position 503</name>
 </trkpt>
 <trkpt lat="48.9766827" lon="9.5788872">
 <ele>297.7</ele>
 <time>2021-10-31T16:06:34.000Z</time>
 <name>Position 504</name>
 </trkpt>
 <trkpt lat="48.976823" lon="9.5790757">
 <ele>297.0</ele>
 <time>2021-10-31T16:06:50.000Z</time>
 <name>Position 505</name>
 </trkpt>
 <trkpt lat="48.9770127" lon="9.579025">
 <ele>296.9</ele>
 <time>2021-10-31T16:07:10.000Z</time>
 <name>Position 506</name>
 </trkpt>
 <trkpt lat="48.9772123" lon="9.5789188">
 <ele>296.8</ele>
 <time>2021-10-31T16:07:32.000Z</time>
 <name>Position 507</name>
 </trkpt>
 <trkpt lat="48.9773815" lon="9.5787703">
 <ele>296.7</ele>
 <time>2021-10-31T16:07:46.000Z</time>
 <name>Position 508</name>
 </trkpt>
 <trkpt lat="48.9775605" lon="9.5786392">
 <ele>296.4</ele>
 <time>2021-10-31T16:08:02.000Z</time>
 <name>Position 509</name>
 </trkpt>
 <trkpt lat="48.9777479" lon="9.57862">
 <ele>295.7</ele>
 <time>2021-10-31T16:09:24.000Z</time>
 <name>Position 510</name>
 </trkpt>
 <trkpt lat="48.9777272" lon="9.5789121">
 <ele>295.6</ele>
 <time>2021-10-31T16:10:28.000Z</time>
 <name>Position 511</name>
 </trkpt>
 <trkpt lat="48.9775856" lon="9.5791026">
 <ele>295.9</ele>
 <time>2021-10-31T16:10:44.000Z</time>
 <name>Position 512</name>
 </trkpt>
 <trkpt lat="48.9774356" lon="9.5792848">
 <ele>296.1</ele>
 <time>2021-10-31T16:11:02.000Z</time>
 <name>0000409</name>
 <desc>&lt;p&gt;&lt;br /&gt;&lt;h3&gt;Name: Segment: 1&lt;/h3&gt;&lt;br /&gt;Startzeit: 10:44 31.10.2021&lt;br/&gt;Zielzeit: 17:11 31.10.2021&lt;br/&gt;Strecke: 10,9km (06:26)&lt;br/&gt;Bewegungszeit: 02:06&lt;br/&gt;Ø-Geschwindigkeit: 1,68 km/h&lt;br/&gt;Netto-Geschwindigkeit: 4,99 km/h&lt;br/&gt;Max. Geschwindigkeit: 5,58 km/h&lt;br/&gt;Minimale Höhe: 293 m&lt;br/&gt;Maximale Höhe: 537 m&lt;br/&gt;Steig-Geschw.: 126,9 m/h&lt;br/&gt;Sink-Geschw.: -131,8 m/h&lt;br/&gt;Aufstieg: 410 m&lt;br/&gt;Abstieg: -410 m&lt;br/&gt;Steigzeit: 03:14&lt;br/&gt;Sinkzeit: 03:06&lt;br/&gt;&lt;/p&gt;</desc>
 </trkpt>
 </trkseg>
 </trk>
</gpx>
